MAS21 LFPG-WMKK
Flight info
| Callsign | MAS21 |
|---|---|
| Flight time | 11h 48m |
| Altitude | 33000 |
| Route | BUBLI DCT LUVAL DCT MIRGU DCT BEGAR DCT TRA DCT GAMSA DCT UMVEG DCT GOTAR DCT MOPUG DCT ASNEL/N0471F350 DCT UDROS DCT CRM DCT ROLIN N644 ODILI DCT BARAD M747 SUBUT T923 ERLEV M11 RODAR A909 BIBIM B450 MAMED B449 DOLOS/N0482F370 B475 NINOP A909 LEMOD N644 DI A466 JHANG M875 MAVLA/N0480F390 M875 KAKID M770 OBMOG L515 PUT B579 VPL Y503 RINBA Y507 KAKAK KAKAK1G |
| Aircraft | A339/H-SADE1E2E3GHIJ3J5M1P2RWXY/LB2D1 |
Departure
| Time | 2026-04-30 08:59 |
|---|---|
| Airport | Charles de Gaulle International Airport (LFPG) |
Arrival
| Time | 2026-04-30 20:47 |
|---|---|
| Airport | Kuala Lumpur International Airport (WMKK) |
| Time | Latitude | Longitude | Altitude | Speed | Heading |
|---|---|---|---|---|---|
| 2026-04-30 08:35 | 49.00159 | 2.56204 | 409 ft | 0 kts | 352° |
| 2026-04-30 08:48 | 49.00146 | 2.56206 | 409 ft | 2 kts | 358° |
| 2026-04-30 08:48 | 49.00131 | 2.56207 | 409 ft | 2 kts | 356° |
| 2026-04-30 08:48 | 49.00116 | 2.56208 | 409 ft | 2 kts | 356° |
| 2026-04-30 08:49 | 49.00106 | 2.56209 | 409 ft | 2 kts | 353° |
| 2026-04-30 08:49 | 49.00093 | 2.56220 | 409 ft | 2 kts | 298° |
| 2026-04-30 08:49 | 49.00090 | 2.56236 | 409 ft | 0 kts | 264° |
| 2026-04-30 08:49 | 49.00091 | 2.56244 | 409 ft | 0 kts | 265° |
| 2026-04-30 08:53 | 49.00091 | 2.56238 | 409 ft | 1 kts | 265° |
| 2026-04-30 08:53 | 49.00090 | 2.56214 | 409 ft | 1 kts | 267° |
| 2026-04-30 08:54 | 49.00088 | 2.56166 | 409 ft | 7 kts | 266° |
| 2026-04-30 08:54 | 49.00083 | 2.56065 | 409 ft | 11 kts | 265° |
| 2026-04-30 08:54 | 49.00075 | 2.55926 | 409 ft | 14 kts | 266° |
| 2026-04-30 08:54 | 49.00072 | 2.55777 | 409 ft | 12 kts | 270° |
| 2026-04-30 08:55 | 49.00048 | 2.55672 | 409 ft | 11 kts | 214° |
| 2026-04-30 08:55 | 48.99972 | 2.55679 | 409 ft | 11 kts | 159° |
| 2026-04-30 08:55 | 48.99917 | 2.55761 | 409 ft | 10 kts | 134° |
| 2026-04-30 08:55 | 48.99855 | 2.55795 | 409 ft | 9 kts | 172° |
| 2026-04-30 08:56 | 48.99786 | 2.55793 | 409 ft | 10 kts | 201° |
| 2026-04-30 08:56 | 48.99748 | 2.55707 | 409 ft | 10 kts | 263° |
| 2026-04-30 08:56 | 48.99742 | 2.55587 | 409 ft | 11 kts | 266° |
| 2026-04-30 08:56 | 48.99730 | 2.55473 | 409 ft | 9 kts | 238° |
| 2026-04-30 08:57 | 48.99668 | 2.55453 | 409 ft | 10 kts | 158° |
| 2026-04-30 08:57 | 48.99610 | 2.55519 | 409 ft | 10 kts | 144° |
| 2026-04-30 08:57 | 48.99586 | 2.55578 | 409 ft | 5 kts | 88° |
| 2026-04-30 08:57 | 48.99587 | 2.55588 | 409 ft | 0 kts | 88° |
| 2026-04-30 08:58 | 48.99588 | 2.55624 | 409 ft | 20 kts | 87° |
| 2026-04-30 08:58 | 48.99617 | 2.56182 | 409 ft | 82 kts | 85° |
| 2026-04-30 08:58 | 48.99678 | 2.57328 | 409 ft | 134 kts | 86° |
| 2026-04-30 08:58 | 48.99768 | 2.58989 | 443 ft | 175 kts | 85° |
| 2026-04-30 08:59 | 48.99866 | 2.60826 | 1000 ft | 176 kts | 86° |
| 2026-04-30 08:59 | 48.99966 | 2.62661 | 1704 ft | 173 kts | 87° |
| 2026-04-30 08:59 | 49.00069 | 2.64442 | 2370 ft | 169 kts | 88° |
| 2026-04-30 08:59 | 49.00169 | 2.66264 | 2636 ft | 181 kts | 88° |
| 2026-04-30 09:00 | 49.00272 | 2.68247 | 2884 ft | 195 kts | 89° |
| 2026-04-30 09:00 | 49.00382 | 2.70391 | 3150 ft | 208 kts | 89° |
| 2026-04-30 09:00 | 49.00497 | 2.72642 | 3410 ft | 223 kts | 89° |
| 2026-04-30 09:00 | 49.00621 | 2.75071 | 3701 ft | 236 kts | 88° |
| 2026-04-30 09:01 | 49.00740 | 2.77572 | 4180 ft | 241 kts | 90° |
| 2026-04-30 09:01 | 49.00724 | 2.80110 | 4735 ft | 243 kts | 95° |
| 2026-04-30 09:01 | 49.00521 | 2.82685 | 5256 ft | 246 kts | 101° |
| 2026-04-30 09:01 | 49.00206 | 2.85244 | 5764 ft | 250 kts | 101° |
| 2026-04-30 09:02 | 48.99540 | 2.90470 | 6756 ft | 256 kts | 101° |
| 2026-04-30 09:02 | 48.99195 | 2.93160 | 7246 ft | 259 kts | 101° |
| 2026-04-30 09:02 | 48.98846 | 2.95855 | 7737 ft | 262 kts | 102° |
| 2026-04-30 09:03 | 48.98380 | 2.98533 | 8241 ft | 264 kts | 108° |
| 2026-04-30 09:03 | 48.97722 | 3.01121 | 8742 ft | 266 kts | 114° |
| 2026-04-30 09:03 | 48.96946 | 3.03688 | 9243 ft | 268 kts | 115° |
| 2026-04-30 09:03 | 48.96162 | 3.06240 | 9722 ft | 270 kts | 115° |
| 2026-04-30 09:04 | 48.95363 | 3.08843 | 10208 ft | 273 kts | 115° |
| 2026-04-30 09:04 | 48.94559 | 3.11455 | 10581 ft | 280 kts | 114° |
| 2026-04-30 09:04 | 48.93713 | 3.14221 | 10806 ft | 292 kts | 114° |
| 2026-04-30 09:04 | 48.92847 | 3.17047 | 11033 ft | 304 kts | 114° |
| 2026-04-30 09:05 | 48.91937 | 3.20021 | 11260 ft | 316 kts | 114° |
| 2026-04-30 09:05 | 48.90984 | 3.23125 | 11483 ft | 328 kts | 114° |
| 2026-04-30 09:05 | 48.90005 | 3.26303 | 11700 ft | 340 kts | 114° |
| 2026-04-30 09:05 | 48.88990 | 3.29591 | 11912 ft | 351 kts | 114° |
| 2026-04-30 09:06 | 48.87933 | 3.33014 | 12148 ft | 361 kts | 114° |
| 2026-04-30 09:06 | 48.86859 | 3.36484 | 12569 ft | 365 kts | 114° |
| 2026-04-30 09:06 | 48.85789 | 3.39943 | 13053 ft | 368 kts | 114° |
| 2026-04-30 09:06 | 48.84694 | 3.43479 | 13531 ft | 371 kts | 114° |
| 2026-04-30 09:07 | 48.83591 | 3.47026 | 14024 ft | 373 kts | 114° |
| 2026-04-30 09:07 | 48.82503 | 3.50554 | 14474 ft | 375 kts | 112° |
| 2026-04-30 09:07 | 48.81605 | 3.54288 | 14943 ft | 377 kts | 105° |
| 2026-04-30 09:07 | 48.81016 | 3.58129 | 15431 ft | 379 kts | 99° |
| 2026-04-30 09:08 | 48.80690 | 3.62115 | 15935 ft | 381 kts | 95° |
| 2026-04-30 09:08 | 48.80428 | 3.66127 | 16437 ft | 384 kts | 96° |
| 2026-04-30 09:08 | 48.80177 | 3.70110 | 16928 ft | 386 kts | 96° |
| 2026-04-30 09:08 | 48.79916 | 3.74183 | 17434 ft | 388 kts | 96° |
| 2026-04-30 09:09 | 48.79652 | 3.78268 | 17924 ft | 390 kts | 96° |
| 2026-04-30 09:09 | 48.79386 | 3.82324 | 18415 ft | 391 kts | 96° |
| 2026-04-30 09:09 | 48.79113 | 3.86442 | 18896 ft | 394 kts | 96° |
| 2026-04-30 09:09 | 48.78840 | 3.90526 | 19341 ft | 396 kts | 96° |
| 2026-04-30 09:10 | 48.78560 | 3.94683 | 19809 ft | 398 kts | 96° |
| 2026-04-30 09:10 | 48.78277 | 3.98863 | 20295 ft | 399 kts | 96° |
| 2026-04-30 09:10 | 48.77991 | 4.03059 | 20738 ft | 401 kts | 95° |
| 2026-04-30 09:10 | 48.77702 | 4.07273 | 21188 ft | 403 kts | 95° |
| 2026-04-30 09:11 | 48.77291 | 4.11429 | 21582 ft | 404 kts | 102° |
| 2026-04-30 09:11 | 48.76422 | 4.15459 | 21960 ft | 408 kts | 111° |
| 2026-04-30 09:11 | 48.75111 | 4.19294 | 22353 ft | 412 kts | 120° |
| 2026-04-30 09:11 | 48.73481 | 4.22887 | 22734 ft | 415 kts | 122° |
| 2026-04-30 09:12 | 48.71829 | 4.26412 | 23076 ft | 418 kts | 122° |
| 2026-04-30 09:12 | 48.70142 | 4.29998 | 23447 ft | 419 kts | 122° |
| 2026-04-30 09:12 | 48.68442 | 4.33600 | 23807 ft | 421 kts | 122° |
| 2026-04-30 09:12 | 48.66753 | 4.37181 | 24121 ft | 424 kts | 122° |
| 2026-04-30 09:13 | 48.65037 | 4.40819 | 24454 ft | 425 kts | 122° |
| 2026-04-30 09:13 | 48.63312 | 4.44470 | 24799 ft | 427 kts | 122° |
| 2026-04-30 09:13 | 48.61607 | 4.48081 | 25105 ft | 429 kts | 122° |
| 2026-04-30 09:13 | 48.59857 | 4.51777 | 25413 ft | 431 kts | 122° |
| 2026-04-30 09:14 | 48.58110 | 4.55467 | 25718 ft | 433 kts | 122° |
| 2026-04-30 09:14 | 48.56372 | 4.59126 | 25999 ft | 435 kts | 122° |
| 2026-04-30 09:14 | 48.54606 | 4.62842 | 26303 ft | 437 kts | 122° |
| 2026-04-30 09:14 | 48.52844 | 4.66548 | 26575 ft | 439 kts | 123° |
| 2026-04-30 09:15 | 48.51057 | 4.70298 | 26865 ft | 441 kts | 123° |
| 2026-04-30 09:15 | 48.49254 | 4.74077 | 27125 ft | 443 kts | 123° |
| 2026-04-30 09:15 | 48.47472 | 4.77807 | 27371 ft | 445 kts | 123° |
| 2026-04-30 09:15 | 48.45648 | 4.81620 | 27630 ft | 446 kts | 123° |
| 2026-04-30 09:16 | 48.43836 | 4.85401 | 27879 ft | 448 kts | 123° |
| 2026-04-30 09:16 | 48.42026 | 4.89168 | 28146 ft | 450 kts | 123° |
| 2026-04-30 09:16 | 48.40192 | 4.92988 | 28483 ft | 449 kts | 123° |
| 2026-04-30 09:16 | 48.38369 | 4.96770 | 28866 ft | 448 kts | 123° |
| 2026-04-30 09:17 | 48.36556 | 5.00532 | 29244 ft | 446 kts | 123° |
| 2026-04-30 09:17 | 48.34744 | 5.04285 | 29590 ft | 445 kts | 123° |
| 2026-04-30 09:17 | 48.32951 | 5.08100 | 29927 ft | 443 kts | 121° |
| 2026-04-30 09:17 | 48.31368 | 5.12013 | 30223 ft | 442 kts | 117° |
| 2026-04-30 09:18 | 48.29983 | 5.16075 | 30502 ft | 441 kts | 112° |
| 2026-04-30 09:18 | 48.28787 | 5.20318 | 30787 ft | 440 kts | 109° |
| 2026-04-30 09:18 | 48.27813 | 5.24622 | 31052 ft | 439 kts | 105° |
| 2026-04-30 09:18 | 48.27016 | 5.29003 | 31335 ft | 437 kts | 103° |
| 2026-04-30 09:19 | 48.26241 | 5.33430 | 31578 ft | 437 kts | 103° |
| 2026-04-30 09:19 | 48.25477 | 5.37822 | 31733 ft | 439 kts | 103° |
| 2026-04-30 09:19 | 48.24707 | 5.42232 | 31909 ft | 441 kts | 103° |
| 2026-04-30 09:19 | 48.23930 | 5.46668 | 32143 ft | 441 kts | 103° |
| 2026-04-30 09:20 | 48.23145 | 5.51136 | 32392 ft | 440 kts | 103° |
| 2026-04-30 09:20 | 48.22371 | 5.55540 | 32562 ft | 442 kts | 103° |
| 2026-04-30 09:20 | 48.21590 | 5.59958 | 32709 ft | 443 kts | 102° |
| 2026-04-30 09:20 | 48.20796 | 5.64447 | 32891 ft | 444 kts | 102° |
| 2026-04-30 09:21 | 48.20009 | 5.68887 | 33075 ft | 444 kts | 103° |
| 2026-04-30 09:21 | 48.19217 | 5.73337 | 33173 ft | 446 kts | 103° |
| 2026-04-30 09:21 | 48.17610 | 5.82340 | 33174 ft | 446 kts | 103° |
| 2026-04-30 09:22 | 48.16011 | 5.91244 | 33183 ft | 446 kts | 103° |
| 2026-04-30 09:22 | 48.14397 | 6.00192 | 33185 ft | 446 kts | 103° |
| 2026-04-30 09:23 | 48.12776 | 6.09134 | 33185 ft | 446 kts | 102° |
| 2026-04-30 09:23 | 48.11158 | 6.18021 | 33186 ft | 447 kts | 103° |
| 2026-04-30 09:24 | 48.09521 | 6.26969 | 33183 ft | 446 kts | 103° |
| 2026-04-30 09:24 | 48.07874 | 6.35920 | 33193 ft | 447 kts | 102° |
| 2026-04-30 09:25 | 48.06230 | 6.44810 | 33191 ft | 447 kts | 103° |
| 2026-04-30 09:25 | 48.04570 | 6.53743 | 33195 ft | 447 kts | 102° |
| 2026-04-30 09:26 | 48.02901 | 6.62676 | 33193 ft | 447 kts | 102° |
| 2026-04-30 09:26 | 48.01489 | 6.71644 | 33190 ft | 446 kts | 98° |
| 2026-04-30 09:27 | 48.00404 | 6.80716 | 33183 ft | 447 kts | 98° |
| 2026-04-30 09:27 | 47.99313 | 6.89806 | 33181 ft | 446 kts | 98° |
| 2026-04-30 09:28 | 47.98208 | 6.98956 | 33171 ft | 447 kts | 98° |
| 2026-04-30 09:28 | 47.97105 | 7.07983 | 33183 ft | 446 kts | 97° |
| 2026-04-30 09:29 | 47.95990 | 7.17097 | 33196 ft | 446 kts | 97° |
| 2026-04-30 09:29 | 47.94870 | 7.26176 | 33214 ft | 445 kts | 97° |
| 2026-04-30 09:30 | 47.93740 | 7.35271 | 33212 ft | 445 kts | 97° |
| 2026-04-30 09:30 | 47.92605 | 7.44324 | 33215 ft | 445 kts | 97° |
| 2026-04-30 09:31 | 47.91418 | 7.53457 | 33208 ft | 446 kts | 99° |
| 2026-04-30 09:31 | 47.89763 | 7.62336 | 33206 ft | 447 kts | 104° |
| 2026-04-30 09:32 | 47.87627 | 7.70984 | 33213 ft | 448 kts | 107° |
| 2026-04-30 09:32 | 47.85440 | 7.79634 | 33212 ft | 448 kts | 107° |
| 2026-04-30 09:33 | 47.83236 | 7.88302 | 33212 ft | 447 kts | 107° |
| 2026-04-30 09:33 | 47.81044 | 7.96888 | 33215 ft | 446 kts | 107° |
| 2026-04-30 09:34 | 47.78848 | 8.05459 | 33201 ft | 446 kts | 107° |
| 2026-04-30 09:34 | 47.76628 | 8.14092 | 33201 ft | 448 kts | 107° |
| 2026-04-30 09:35 | 47.74416 | 8.22662 | 33195 ft | 448 kts | 107° |
| 2026-04-30 09:35 | 47.72179 | 8.31286 | 33206 ft | 447 kts | 107° |
| 2026-04-30 09:36 | 47.69943 | 8.39879 | 33220 ft | 447 kts | 107° |
| 2026-04-30 09:36 | 47.67871 | 8.48503 | 33224 ft | 446 kts | 104° |
| 2026-04-30 09:37 | 47.65904 | 8.57215 | 33227 ft | 446 kts | 104° |
| 2026-04-30 09:37 | 47.63926 | 8.65934 | 33229 ft | 447 kts | 104° |
| 2026-04-30 09:38 | 47.61943 | 8.74648 | 33230 ft | 448 kts | 104° |
| 2026-04-30 09:38 | 47.59945 | 8.83391 | 33229 ft | 448 kts | 104° |
| 2026-04-30 09:39 | 47.57954 | 8.92060 | 33227 ft | 448 kts | 104° |
| 2026-04-30 09:39 | 47.55939 | 9.00802 | 33224 ft | 448 kts | 104° |
| 2026-04-30 09:40 | 47.53934 | 9.09472 | 33235 ft | 448 kts | 104° |
| 2026-04-30 09:40 | 47.51920 | 9.18140 | 33232 ft | 449 kts | 104° |
| 2026-04-30 09:41 | 47.49883 | 9.26872 | 33227 ft | 450 kts | 104° |
| 2026-04-30 09:41 | 47.47841 | 9.35587 | 33224 ft | 449 kts | 104° |
| 2026-04-30 09:42 | 47.45804 | 9.44248 | 33224 ft | 449 kts | 104° |
| 2026-04-30 09:42 | 47.43752 | 9.52932 | 33219 ft | 449 kts | 104° |
| 2026-04-30 09:43 | 47.41851 | 9.61639 | 33222 ft | 446 kts | 99° |
| 2026-04-30 09:43 | 47.40511 | 9.70568 | 33216 ft | 444 kts | 95° |
| 2026-04-30 09:44 | 47.39716 | 9.79538 | 33224 ft | 442 kts | 92° |
| 2026-04-30 09:44 | 47.39002 | 9.88554 | 33220 ft | 442 kts | 92° |
| 2026-04-30 09:45 | 47.38285 | 9.97530 | 33242 ft | 442 kts | 92° |
| 2026-04-30 09:45 | 47.37562 | 10.06473 | 33232 ft | 442 kts | 92° |
| 2026-04-30 09:46 | 47.36828 | 10.15474 | 33248 ft | 441 kts | 92° |
| 2026-04-30 09:46 | 47.36087 | 10.24465 | 33245 ft | 442 kts | 92° |
| 2026-04-30 09:47 | 47.35342 | 10.33405 | 33258 ft | 441 kts | 92° |
| 2026-04-30 09:47 | 47.34592 | 10.42331 | 33259 ft | 441 kts | 92° |
| 2026-04-30 09:48 | 47.33829 | 10.51314 | 33257 ft | 442 kts | 91° |
| 2026-04-30 09:48 | 47.33067 | 10.60217 | 33260 ft | 441 kts | 92° |
| 2026-04-30 09:49 | 47.32291 | 10.69185 | 33275 ft | 441 kts | 92° |
| 2026-04-30 09:49 | 47.31510 | 10.78119 | 33280 ft | 441 kts | 92° |
| 2026-04-30 09:50 | 47.30721 | 10.87073 | 33284 ft | 441 kts | 92° |
| 2026-04-30 09:50 | 47.29929 | 10.95985 | 33293 ft | 441 kts | 92° |
| 2026-04-30 09:51 | 47.29131 | 11.04899 | 33300 ft | 440 kts | 92° |
| 2026-04-30 09:51 | 47.28323 | 11.13846 | 33298 ft | 440 kts | 92° |
| 2026-04-30 09:52 | 47.27509 | 11.22733 | 33277 ft | 441 kts | 92° |
| 2026-04-30 09:52 | 47.26689 | 11.31642 | 33272 ft | 441 kts | 92° |
| 2026-04-30 09:53 | 47.25862 | 11.40556 | 33263 ft | 440 kts | 92° |
| 2026-04-30 09:53 | 47.25030 | 11.49440 | 33270 ft | 440 kts | 92° |
| 2026-04-30 09:54 | 47.24188 | 11.58355 | 33282 ft | 441 kts | 92° |
| 2026-04-30 09:54 | 47.23342 | 11.67214 | 33285 ft | 440 kts | 92° |
| 2026-04-30 09:55 | 47.22485 | 11.76134 | 33281 ft | 441 kts | 92° |
| 2026-04-30 09:55 | 47.21617 | 11.85075 | 33267 ft | 441 kts | 92° |
| 2026-04-30 09:56 | 47.21048 | 11.93943 | 33264 ft | 437 kts | 87° |
| 2026-04-30 09:56 | 47.20766 | 12.02875 | 33252 ft | 437 kts | 87° |
| 2026-04-30 09:57 | 47.20482 | 12.11780 | 33265 ft | 437 kts | 87° |
| 2026-04-30 09:57 | 47.20194 | 12.20652 | 33280 ft | 438 kts | 87° |
| 2026-04-30 09:58 | 47.19898 | 12.29552 | 33283 ft | 437 kts | 87° |
| 2026-04-30 09:58 | 47.19591 | 12.38490 | 33299 ft | 437 kts | 87° |
| 2026-04-30 09:59 | 47.18960 | 12.56271 | 33290 ft | 437 kts | 87° |
| 2026-04-30 10:00 | 47.18467 | 12.69677 | 33280 ft | 439 kts | 88° |
| 2026-04-30 10:01 | 47.17957 | 12.83102 | 33278 ft | 440 kts | 88° |
| 2026-04-30 10:02 | 47.17433 | 12.96468 | 33274 ft | 439 kts | 88° |
| 2026-04-30 10:02 | 47.17073 | 13.05457 | 33262 ft | 441 kts | 88° |
| 2026-04-30 10:03 | 47.16710 | 13.14379 | 33232 ft | 441 kts | 88° |
| 2026-04-30 10:03 | 47.16333 | 13.23390 | 33210 ft | 443 kts | 88° |
| 2026-04-30 10:04 | 47.15949 | 13.32404 | 33200 ft | 444 kts | 88° |
| 2026-04-30 10:04 | 47.15558 | 13.41431 | 33192 ft | 444 kts | 88° |
| 2026-04-30 10:05 | 47.15159 | 13.50458 | 33206 ft | 444 kts | 88° |
| 2026-04-30 10:05 | 47.14756 | 13.59484 | 33209 ft | 445 kts | 88° |
| 2026-04-30 10:06 | 47.14341 | 13.68523 | 33214 ft | 446 kts | 89° |
| 2026-04-30 10:06 | 47.13919 | 13.77595 | 33207 ft | 447 kts | 89° |
| 2026-04-30 10:07 | 47.13489 | 13.86716 | 33203 ft | 448 kts | 89° |
| 2026-04-30 10:07 | 47.13056 | 13.95752 | 33187 ft | 449 kts | 89° |
| 2026-04-30 10:08 | 47.12610 | 14.04854 | 33185 ft | 450 kts | 89° |
| 2026-04-30 10:08 | 47.12154 | 14.14006 | 33202 ft | 450 kts | 89° |
| 2026-04-30 10:09 | 47.11695 | 14.23136 | 33227 ft | 451 kts | 89° |
| 2026-04-30 10:09 | 47.11225 | 14.32297 | 33251 ft | 451 kts | 89° |
| 2026-04-30 10:10 | 47.10748 | 14.41483 | 33269 ft | 454 kts | 89° |
| 2026-04-30 10:10 | 47.10260 | 14.50685 | 33278 ft | 455 kts | 89° |
| 2026-04-30 10:11 | 47.09765 | 14.59894 | 33281 ft | 456 kts | 89° |
| 2026-04-30 10:11 | 47.09263 | 14.69140 | 33301 ft | 457 kts | 90° |
| 2026-04-30 10:12 | 47.08747 | 14.78466 | 33316 ft | 459 kts | 90° |
| 2026-04-30 10:12 | 47.08227 | 14.87754 | 33319 ft | 460 kts | 90° |
| 2026-04-30 10:13 | 47.07694 | 14.97060 | 33311 ft | 460 kts | 90° |
| 2026-04-30 10:13 | 47.07158 | 15.06361 | 33301 ft | 460 kts | 90° |
| 2026-04-30 10:14 | 47.06611 | 15.15703 | 33304 ft | 462 kts | 91° |
| 2026-04-30 10:14 | 47.05775 | 15.29724 | 33340 ft | 463 kts | 91° |
| 2026-04-30 10:15 | 47.05204 | 15.39120 | 33356 ft | 464 kts | 91° |
| 2026-04-30 10:15 | 47.04624 | 15.48531 | 33364 ft | 464 kts | 91° |
| 2026-04-30 10:16 | 47.04039 | 15.57938 | 33366 ft | 466 kts | 91° |
| 2026-04-30 10:17 | 47.03139 | 15.72098 | 33361 ft | 466 kts | 92° |
| 2026-04-30 10:17 | 47.02222 | 15.86275 | 33355 ft | 468 kts | 92° |
| 2026-04-30 10:18 | 47.01602 | 15.95712 | 33357 ft | 469 kts | 92° |
| 2026-04-30 10:19 | 47.00650 | 16.09920 | 33363 ft | 469 kts | 92° |
| 2026-04-30 10:19 | 46.99967 | 16.19424 | 33363 ft | 471 kts | 94° |
| 2026-04-30 10:20 | 46.98762 | 16.28795 | 33369 ft | 473 kts | 99° |
| 2026-04-30 10:20 | 46.96446 | 16.42807 | 33370 ft | 475 kts | 100° |
| 2026-04-30 10:21 | 46.94886 | 16.52168 | 33378 ft | 475 kts | 100° |
| 2026-04-30 10:21 | 46.93310 | 16.61577 | 33376 ft | 476 kts | 100° |
| 2026-04-30 10:22 | 46.91733 | 16.70945 | 33372 ft | 476 kts | 101° |
| 2026-04-30 10:22 | 46.90153 | 16.80279 | 33372 ft | 474 kts | 101° |
| 2026-04-30 10:23 | 46.88574 | 16.89571 | 33375 ft | 473 kts | 101° |
| 2026-04-30 10:23 | 46.86985 | 16.98876 | 33374 ft | 474 kts | 101° |
| 2026-04-30 10:24 | 46.85385 | 17.08195 | 33372 ft | 475 kts | 101° |
| 2026-04-30 10:24 | 46.83773 | 17.17524 | 33369 ft | 475 kts | 101° |
| 2026-04-30 10:25 | 46.82156 | 17.26828 | 33374 ft | 474 kts | 101° |
| 2026-04-30 10:25 | 46.80535 | 17.36113 | 33375 ft | 474 kts | 101° |
| 2026-04-30 10:26 | 46.78902 | 17.45418 | 33363 ft | 474 kts | 101° |
| 2026-04-30 10:26 | 46.77267 | 17.54695 | 33387 ft | 474 kts | 101° |
| 2026-04-30 10:27 | 46.75629 | 17.63935 | 33378 ft | 474 kts | 101° |
| 2026-04-30 10:27 | 46.73972 | 17.73233 | 33375 ft | 475 kts | 101° |
| 2026-04-30 10:28 | 46.72309 | 17.82513 | 33369 ft | 475 kts | 101° |
| 2026-04-30 10:28 | 46.70642 | 17.91772 | 33363 ft | 474 kts | 101° |
| 2026-04-30 10:29 | 46.68969 | 18.01016 | 33362 ft | 474 kts | 101° |
| 2026-04-30 10:29 | 46.67286 | 18.10274 | 33350 ft | 475 kts | 101° |
| 2026-04-30 10:30 | 46.65586 | 18.19569 | 33340 ft | 476 kts | 101° |
| 2026-04-30 10:30 | 46.63892 | 18.28784 | 33342 ft | 476 kts | 101° |
| 2026-04-30 10:31 | 46.62168 | 18.38116 | 33344 ft | 476 kts | 101° |
| 2026-04-30 10:31 | 46.60462 | 18.47322 | 33352 ft | 475 kts | 101° |
| 2026-04-30 10:32 | 46.58736 | 18.56584 | 33334 ft | 476 kts | 101° |
| 2026-04-30 10:32 | 46.57000 | 18.65854 | 33351 ft | 477 kts | 102° |
| 2026-04-30 10:33 | 46.55255 | 18.75118 | 33352 ft | 478 kts | 102° |
| 2026-04-30 10:33 | 46.53496 | 18.84412 | 33326 ft | 478 kts | 102° |
| 2026-04-30 10:34 | 46.51732 | 18.93685 | 33339 ft | 478 kts | 102° |
| 2026-04-30 10:34 | 46.49962 | 19.02943 | 33354 ft | 478 kts | 102° |
| 2026-04-30 10:35 | 46.48181 | 19.12216 | 33319 ft | 479 kts | 102° |
| 2026-04-30 10:35 | 46.46397 | 19.21458 | 33308 ft | 480 kts | 102° |
| 2026-04-30 10:36 | 46.44595 | 19.30751 | 33320 ft | 480 kts | 102° |
| 2026-04-30 10:36 | 46.42785 | 19.40040 | 33317 ft | 481 kts | 102° |
| 2026-04-30 10:37 | 46.40958 | 19.49364 | 33314 ft | 481 kts | 102° |
| 2026-04-30 10:37 | 46.39133 | 19.58637 | 33316 ft | 482 kts | 102° |
| 2026-04-30 10:38 | 46.37296 | 19.67934 | 33313 ft | 483 kts | 103° |
| 2026-04-30 10:38 | 46.35439 | 19.77272 | 33296 ft | 483 kts | 103° |
| 2026-04-30 10:39 | 46.33586 | 19.86552 | 33290 ft | 483 kts | 103° |
| 2026-04-30 10:39 | 46.31723 | 19.95836 | 33310 ft | 484 kts | 103° |
| 2026-04-30 10:40 | 46.29850 | 20.05135 | 33299 ft | 484 kts | 103° |
| 2026-04-30 10:40 | 46.27958 | 20.14486 | 33287 ft | 485 kts | 103° |
| 2026-04-30 10:41 | 46.26059 | 20.23818 | 33307 ft | 486 kts | 103° |
| 2026-04-30 10:41 | 46.24152 | 20.33144 | 33295 ft | 487 kts | 103° |
| 2026-04-30 10:42 | 46.22236 | 20.42478 | 33280 ft | 487 kts | 103° |
| 2026-04-30 10:42 | 46.20304 | 20.51834 | 33298 ft | 487 kts | 103° |
| 2026-04-30 10:43 | 46.18368 | 20.61173 | 33276 ft | 487 kts | 103° |
| 2026-04-30 10:43 | 46.16397 | 20.70511 | 33281 ft | 488 kts | 106° |
| 2026-04-30 10:44 | 46.14086 | 20.79682 | 33267 ft | 490 kts | 108° |
| 2026-04-30 10:44 | 46.11699 | 20.88892 | 33284 ft | 491 kts | 108° |
| 2026-04-30 10:45 | 46.09317 | 20.98056 | 33272 ft | 492 kts | 108° |
| 2026-04-30 10:45 | 46.06924 | 21.07235 | 33274 ft | 492 kts | 108° |
| 2026-04-30 10:46 | 46.04523 | 21.16410 | 33277 ft | 492 kts | 108° |
| 2026-04-30 10:46 | 46.02105 | 21.25616 | 33276 ft | 492 kts | 109° |
| 2026-04-30 10:47 | 45.99694 | 21.34754 | 33267 ft | 493 kts | 108° |
| 2026-04-30 10:47 | 45.97262 | 21.43942 | 33253 ft | 493 kts | 109° |
| 2026-04-30 10:48 | 45.94817 | 21.53139 | 33252 ft | 494 kts | 109° |
| 2026-04-30 10:48 | 45.92368 | 21.62319 | 33245 ft | 496 kts | 109° |
| 2026-04-30 10:49 | 45.89880 | 21.71610 | 33240 ft | 497 kts | 110° |
| 2026-04-30 10:49 | 45.87392 | 21.80859 | 33231 ft | 498 kts | 110° |
| 2026-04-30 10:50 | 45.84913 | 21.90044 | 33231 ft | 499 kts | 110° |
| 2026-04-30 10:50 | 45.82407 | 21.99291 | 33225 ft | 499 kts | 110° |
| 2026-04-30 10:51 | 45.79887 | 22.08553 | 33227 ft | 500 kts | 110° |
| 2026-04-30 10:51 | 45.77362 | 22.17796 | 33226 ft | 500 kts | 110° |
| 2026-04-30 10:52 | 45.74829 | 22.27032 | 33220 ft | 501 kts | 110° |
| 2026-04-30 10:52 | 45.72281 | 22.36292 | 33210 ft | 503 kts | 111° |
| 2026-04-30 10:53 | 45.69722 | 22.45556 | 33196 ft | 504 kts | 111° |
| 2026-04-30 10:53 | 45.67133 | 22.54883 | 33177 ft | 505 kts | 111° |
| 2026-04-30 10:54 | 45.64552 | 22.64154 | 33183 ft | 505 kts | 111° |
| 2026-04-30 10:54 | 45.61936 | 22.73521 | 33194 ft | 507 kts | 112° |
| 2026-04-30 10:55 | 45.59332 | 22.82800 | 33199 ft | 507 kts | 112° |
| 2026-04-30 10:55 | 45.56701 | 22.92135 | 33207 ft | 509 kts | 112° |
| 2026-04-30 10:56 | 45.54056 | 23.01489 | 33222 ft | 510 kts | 112° |
| 2026-04-30 10:56 | 45.51388 | 23.10889 | 33222 ft | 512 kts | 112° |
| 2026-04-30 10:57 | 45.48727 | 23.20229 | 33200 ft | 512 kts | 112° |
| 2026-04-30 10:57 | 45.46046 | 23.29611 | 33177 ft | 513 kts | 113° |
| 2026-04-30 10:58 | 45.43369 | 23.38931 | 33164 ft | 514 kts | 113° |
| 2026-04-30 10:58 | 45.40660 | 23.48325 | 33160 ft | 514 kts | 113° |
| 2026-04-30 10:59 | 45.37953 | 23.57688 | 33146 ft | 515 kts | 114° |
| 2026-04-30 10:59 | 45.35214 | 23.67121 | 33138 ft | 515 kts | 115° |
| 2026-04-30 11:00 | 45.32493 | 23.76460 | 33131 ft | 516 kts | 114° |
| 2026-04-30 11:00 | 45.29746 | 23.85848 | 33146 ft | 516 kts | 115° |
| 2026-04-30 11:01 | 45.26988 | 23.95237 | 33152 ft | 517 kts | 115° |
| 2026-04-30 11:01 | 45.24216 | 24.04640 | 33165 ft | 518 kts | 115° |
| 2026-04-30 11:02 | 45.21453 | 24.13978 | 33184 ft | 518 kts | 115° |
| 2026-04-30 11:02 | 45.18664 | 24.23376 | 33206 ft | 518 kts | 115° |
| 2026-04-30 11:03 | 45.15855 | 24.32798 | 33225 ft | 520 kts | 116° |
| 2026-04-30 11:04 | 45.11634 | 24.46879 | 33231 ft | 522 kts | 115° |
| 2026-04-30 11:04 | 45.08801 | 24.56293 | 33237 ft | 522 kts | 115° |
| 2026-04-30 11:05 | 45.05961 | 24.65694 | 33232 ft | 523 kts | 116° |
| 2026-04-30 11:05 | 45.03111 | 24.75108 | 33237 ft | 522 kts | 116° |
| 2026-04-30 11:06 | 45.00248 | 24.84520 | 33276 ft | 523 kts | 117° |
| 2026-04-30 11:06 | 44.97378 | 24.93917 | 33243 ft | 522 kts | 117° |
| 2026-04-30 11:07 | 44.94515 | 25.03254 | 33241 ft | 523 kts | 117° |
| 2026-04-30 11:07 | 44.91619 | 25.12666 | 33247 ft | 525 kts | 117° |
| 2026-04-30 11:08 | 44.88703 | 25.22110 | 33249 ft | 525 kts | 117° |
| 2026-04-30 11:08 | 44.85802 | 25.31476 | 33250 ft | 524 kts | 117° |
| 2026-04-30 11:09 | 44.82890 | 25.40839 | 33272 ft | 525 kts | 117° |
| 2026-04-30 11:09 | 44.79938 | 25.50289 | 33253 ft | 527 kts | 117° |
| 2026-04-30 11:10 | 44.77004 | 25.59658 | 33260 ft | 528 kts | 117° |
| 2026-04-30 11:10 | 44.74031 | 25.69114 | 33244 ft | 528 kts | 118° |
| 2026-04-30 11:11 | 44.71069 | 25.78497 | 33260 ft | 528 kts | 118° |
| 2026-04-30 11:11 | 44.68094 | 25.87893 | 33266 ft | 529 kts | 118° |
| 2026-04-30 11:12 | 44.65106 | 25.97295 | 33269 ft | 529 kts | 118° |
| 2026-04-30 11:12 | 44.62097 | 26.06727 | 33272 ft | 530 kts | 118° |
| 2026-04-30 11:13 | 44.59096 | 26.16095 | 33290 ft | 531 kts | 118° |
| 2026-04-30 11:13 | 44.56079 | 26.25488 | 33278 ft | 530 kts | 118° |
| 2026-04-30 11:14 | 44.52960 | 26.34793 | 33279 ft | 528 kts | 122° |
| 2026-04-30 11:14 | 44.49451 | 26.43806 | 33276 ft | 528 kts | 123° |
| 2026-04-30 11:15 | 44.45902 | 26.52791 | 33264 ft | 528 kts | 123° |
| 2026-04-30 11:15 | 44.42361 | 26.61756 | 33258 ft | 529 kts | 123° |
| 2026-04-30 11:16 | 44.38810 | 26.70732 | 33252 ft | 529 kts | 124° |
| 2026-04-30 11:16 | 44.35262 | 26.79684 | 33249 ft | 528 kts | 124° |
| 2026-04-30 11:17 | 44.31709 | 26.88607 | 33248 ft | 528 kts | 124° |
| 2026-04-30 11:17 | 44.28137 | 26.97550 | 33243 ft | 529 kts | 124° |
| 2026-04-30 11:18 | 44.24556 | 27.06499 | 33240 ft | 529 kts | 124° |
| 2026-04-30 11:18 | 44.19178 | 27.19873 | 33237 ft | 530 kts | 123° |
| 2026-04-30 11:19 | 44.15596 | 27.28757 | 33234 ft | 529 kts | 123° |
| 2026-04-30 11:19 | 44.11977 | 27.37691 | 33227 ft | 529 kts | 123° |
| 2026-04-30 11:20 | 44.08376 | 27.46561 | 33223 ft | 529 kts | 123° |
| 2026-04-30 11:20 | 44.04766 | 27.55423 | 33224 ft | 529 kts | 124° |
| 2026-04-30 11:21 | 44.01146 | 27.64280 | 33219 ft | 529 kts | 124° |
| 2026-04-30 11:21 | 43.97516 | 27.73136 | 33206 ft | 528 kts | 124° |
| 2026-04-30 11:22 | 43.93890 | 27.81957 | 33200 ft | 527 kts | 124° |
| 2026-04-30 11:22 | 43.90246 | 27.90791 | 33190 ft | 527 kts | 124° |
| 2026-04-30 11:23 | 43.86629 | 27.99541 | 33187 ft | 526 kts | 124° |
| 2026-04-30 11:24 | 43.81171 | 28.12679 | 33189 ft | 528 kts | 124° |
| 2026-04-30 11:24 | 43.77500 | 28.21489 | 33195 ft | 527 kts | 124° |
| 2026-04-30 11:25 | 43.72031 | 28.34548 | 33191 ft | 526 kts | 124° |
| 2026-04-30 11:26 | 43.64706 | 28.51943 | 33198 ft | 526 kts | 124° |
| 2026-04-30 11:26 | 43.61041 | 28.60626 | 33190 ft | 526 kts | 124° |
| 2026-04-30 11:27 | 43.57352 | 28.69332 | 33193 ft | 525 kts | 125° |
| 2026-04-30 11:27 | 43.53686 | 28.77954 | 33196 ft | 524 kts | 125° |
| 2026-04-30 11:28 | 43.48170 | 28.90874 | 33192 ft | 524 kts | 126° |
| 2026-04-30 11:29 | 43.44465 | 28.99522 | 33191 ft | 524 kts | 125° |
| 2026-04-30 11:29 | 43.38937 | 29.12385 | 33188 ft | 522 kts | 125° |
| 2026-04-30 11:30 | 43.33385 | 29.25236 | 33189 ft | 523 kts | 125° |
| 2026-04-30 11:31 | 43.29666 | 29.33815 | 33185 ft | 522 kts | 125° |
| 2026-04-30 11:31 | 43.25972 | 29.42311 | 33184 ft | 522 kts | 125° |
| 2026-04-30 11:32 | 43.22259 | 29.50829 | 33182 ft | 522 kts | 125° |
| 2026-04-30 11:32 | 43.18537 | 29.59338 | 33177 ft | 521 kts | 125° |
| 2026-04-30 11:33 | 43.12961 | 29.72048 | 33175 ft | 520 kts | 126° |
| 2026-04-30 11:33 | 43.09224 | 29.80530 | 33171 ft | 520 kts | 126° |
| 2026-04-30 11:34 | 43.05517 | 29.88923 | 33167 ft | 520 kts | 126° |
| 2026-04-30 11:34 | 43.01774 | 29.97375 | 33157 ft | 520 kts | 126° |
| 2026-04-30 11:35 | 42.98046 | 30.05764 | 33138 ft | 519 kts | 126° |
| 2026-04-30 11:35 | 42.94308 | 30.14152 | 33145 ft | 519 kts | 126° |
| 2026-04-30 11:36 | 42.90546 | 30.22574 | 33146 ft | 518 kts | 126° |
| 2026-04-30 11:36 | 42.86793 | 30.30954 | 33148 ft | 517 kts | 126° |
| 2026-04-30 11:37 | 42.83073 | 30.39234 | 33141 ft | 517 kts | 126° |
| 2026-04-30 11:37 | 42.79310 | 30.47582 | 33147 ft | 517 kts | 126° |
| 2026-04-30 11:38 | 42.75716 | 30.56015 | 33145 ft | 520 kts | 121° |
| 2026-04-30 11:38 | 42.72779 | 30.65019 | 33148 ft | 524 kts | 114° |
| 2026-04-30 11:39 | 42.70568 | 30.74467 | 33139 ft | 525 kts | 109° |
| 2026-04-30 11:39 | 42.68536 | 30.83943 | 33137 ft | 525 kts | 109° |
| 2026-04-30 11:40 | 42.66487 | 30.93385 | 33140 ft | 524 kts | 109° |
| 2026-04-30 11:40 | 42.64421 | 31.02804 | 33131 ft | 523 kts | 109° |
| 2026-04-30 11:41 | 42.62328 | 31.12262 | 33129 ft | 523 kts | 109° |
| 2026-04-30 11:41 | 42.60233 | 31.21693 | 33130 ft | 522 kts | 109° |
| 2026-04-30 11:42 | 42.58136 | 31.31083 | 33130 ft | 523 kts | 109° |
| 2026-04-30 11:42 | 42.56034 | 31.40457 | 33124 ft | 523 kts | 109° |
| 2026-04-30 11:43 | 42.53912 | 31.49888 | 33124 ft | 523 kts | 109° |
| 2026-04-30 11:43 | 42.51799 | 31.59241 | 33124 ft | 522 kts | 109° |
| 2026-04-30 11:44 | 42.49663 | 31.68648 | 33121 ft | 522 kts | 110° |
| 2026-04-30 11:44 | 42.47534 | 31.77989 | 33120 ft | 521 kts | 110° |
| 2026-04-30 11:45 | 42.45397 | 31.87320 | 33119 ft | 521 kts | 110° |
| 2026-04-30 11:45 | 42.43248 | 31.96661 | 33118 ft | 521 kts | 110° |
| 2026-04-30 11:46 | 42.41101 | 32.05960 | 33117 ft | 521 kts | 110° |
| 2026-04-30 11:46 | 42.38944 | 32.15261 | 33112 ft | 520 kts | 110° |
| 2026-04-30 11:47 | 42.36772 | 32.24587 | 33103 ft | 520 kts | 110° |
| 2026-04-30 11:47 | 42.34600 | 32.33873 | 33104 ft | 520 kts | 110° |
| 2026-04-30 11:48 | 42.32424 | 32.43147 | 33097 ft | 519 kts | 110° |
| 2026-04-30 11:48 | 42.30244 | 32.52398 | 33096 ft | 519 kts | 110° |
| 2026-04-30 11:49 | 42.28055 | 32.61639 | 33091 ft | 518 kts | 110° |
| 2026-04-30 11:49 | 42.25858 | 32.70887 | 33089 ft | 518 kts | 111° |
| 2026-04-30 11:50 | 42.23667 | 32.80065 | 33083 ft | 517 kts | 110° |
| 2026-04-30 11:50 | 42.21461 | 32.89281 | 33079 ft | 517 kts | 110° |
| 2026-04-30 11:51 | 42.19246 | 32.98493 | 33079 ft | 517 kts | 111° |
| 2026-04-30 11:51 | 42.17034 | 33.07650 | 33076 ft | 516 kts | 110° |
| 2026-04-30 11:52 | 42.14809 | 33.16825 | 33083 ft | 516 kts | 110° |
| 2026-04-30 11:52 | 42.12591 | 33.25931 | 33081 ft | 516 kts | 110° |
| 2026-04-30 11:53 | 42.10357 | 33.35070 | 33080 ft | 516 kts | 110° |
| 2026-04-30 11:53 | 42.08116 | 33.44200 | 33080 ft | 515 kts | 110° |
| 2026-04-30 11:54 | 42.05864 | 33.53343 | 33082 ft | 515 kts | 110° |
| 2026-04-30 11:54 | 42.03613 | 33.62439 | 33088 ft | 514 kts | 110° |
| 2026-04-30 11:55 | 42.01368 | 33.71488 | 33085 ft | 513 kts | 111° |
| 2026-04-30 11:55 | 41.99110 | 33.80545 | 33093 ft | 513 kts | 111° |
| 2026-04-30 11:56 | 41.96839 | 33.89616 | 33089 ft | 512 kts | 111° |
| 2026-04-30 11:56 | 41.94570 | 33.98645 | 33091 ft | 512 kts | 111° |
| 2026-04-30 11:57 | 41.92294 | 34.07673 | 33084 ft | 512 kts | 111° |
| 2026-04-30 11:57 | 41.90007 | 34.16708 | 33077 ft | 513 kts | 111° |
| 2026-04-30 11:58 | 41.87714 | 34.25733 | 33075 ft | 513 kts | 111° |
| 2026-04-30 11:58 | 41.85420 | 34.34734 | 33074 ft | 512 kts | 111° |
| 2026-04-30 11:59 | 41.83109 | 34.43757 | 33077 ft | 512 kts | 111° |
| 2026-04-30 11:59 | 41.80794 | 34.52762 | 33078 ft | 512 kts | 111° |
| 2026-04-30 12:00 | 41.78473 | 34.61762 | 33077 ft | 513 kts | 111° |
| 2026-04-30 12:00 | 41.76149 | 34.70737 | 33077 ft | 512 kts | 111° |
| 2026-04-30 12:01 | 41.73821 | 34.79693 | 33076 ft | 512 kts | 112° |
| 2026-04-30 12:01 | 41.71468 | 34.88710 | 33077 ft | 513 kts | 111° |
| 2026-04-30 12:02 | 41.69115 | 34.97699 | 33077 ft | 513 kts | 111° |
| 2026-04-30 12:02 | 41.66767 | 35.06639 | 33072 ft | 512 kts | 112° |
| 2026-04-30 12:03 | 41.63217 | 35.20085 | 33074 ft | 512 kts | 112° |
| 2026-04-30 12:04 | 41.60853 | 35.28994 | 33073 ft | 513 kts | 112° |
| 2026-04-30 12:04 | 41.58461 | 35.37976 | 33075 ft | 513 kts | 112° |
| 2026-04-30 12:05 | 41.56079 | 35.46887 | 33074 ft | 513 kts | 112° |
| 2026-04-30 12:05 | 41.53684 | 35.55820 | 33078 ft | 512 kts | 112° |
| 2026-04-30 12:06 | 41.51284 | 35.64738 | 33078 ft | 512 kts | 112° |
| 2026-04-30 12:06 | 41.48882 | 35.73639 | 33077 ft | 512 kts | 112° |
| 2026-04-30 12:07 | 41.46467 | 35.82541 | 33076 ft | 512 kts | 112° |
| 2026-04-30 12:07 | 41.44043 | 35.91451 | 33071 ft | 512 kts | 112° |
| 2026-04-30 12:08 | 41.41613 | 36.00349 | 33070 ft | 512 kts | 112° |
| 2026-04-30 12:08 | 41.39197 | 36.09171 | 33070 ft | 511 kts | 112° |
| 2026-04-30 12:09 | 41.36753 | 36.18059 | 33070 ft | 511 kts | 112° |
| 2026-04-30 12:09 | 41.34320 | 36.26881 | 33076 ft | 511 kts | 112° |
| 2026-04-30 12:10 | 41.31869 | 36.35735 | 33077 ft | 511 kts | 112° |
| 2026-04-30 12:10 | 41.29488 | 36.44626 | 33081 ft | 512 kts | 108° |
| 2026-04-30 12:11 | 41.28071 | 36.53860 | 33084 ft | 515 kts | 96° |
| 2026-04-30 12:11 | 41.27956 | 36.63340 | 33084 ft | 516 kts | 85° |
| 2026-04-30 12:12 | 41.29048 | 36.72697 | 33087 ft | 516 kts | 78° |
| 2026-04-30 12:12 | 41.30472 | 36.81992 | 33086 ft | 516 kts | 78° |
| 2026-04-30 12:13 | 41.31883 | 36.91380 | 33085 ft | 517 kts | 78° |
| 2026-04-30 12:13 | 41.33251 | 37.00727 | 33081 ft | 517 kts | 78° |
| 2026-04-30 12:14 | 41.34598 | 37.10057 | 33085 ft | 517 kts | 78° |
| 2026-04-30 12:14 | 41.35941 | 37.19411 | 33088 ft | 516 kts | 78° |
| 2026-04-30 12:15 | 41.37277 | 37.28777 | 33091 ft | 516 kts | 78° |
| 2026-04-30 12:15 | 41.38598 | 37.38104 | 33090 ft | 516 kts | 78° |
| 2026-04-30 12:16 | 41.39917 | 37.47474 | 33099 ft | 516 kts | 78° |
| 2026-04-30 12:16 | 41.41228 | 37.56843 | 33099 ft | 516 kts | 78° |
| 2026-04-30 12:17 | 41.43187 | 37.70954 | 33106 ft | 517 kts | 79° |
| 2026-04-30 12:17 | 41.44473 | 37.80294 | 33112 ft | 517 kts | 79° |
| 2026-04-30 12:18 | 41.45761 | 37.89706 | 33114 ft | 517 kts | 79° |
| 2026-04-30 12:18 | 41.47037 | 37.99085 | 33119 ft | 517 kts | 79° |
| 2026-04-30 12:19 | 41.48310 | 38.08502 | 33118 ft | 517 kts | 79° |
| 2026-04-30 12:19 | 41.49574 | 38.17916 | 33120 ft | 517 kts | 79° |
| 2026-04-30 12:20 | 41.50831 | 38.27339 | 33119 ft | 517 kts | 79° |
| 2026-04-30 12:20 | 41.52075 | 38.36737 | 33119 ft | 517 kts | 79° |
| 2026-04-30 12:21 | 41.53319 | 38.46179 | 33123 ft | 517 kts | 79° |
| 2026-04-30 12:21 | 41.54553 | 38.55607 | 33118 ft | 518 kts | 79° |
| 2026-04-30 12:22 | 41.55777 | 38.65022 | 33116 ft | 517 kts | 79° |
| 2026-04-30 12:22 | 41.57005 | 38.74536 | 33115 ft | 518 kts | 80° |
| 2026-04-30 12:23 | 41.58210 | 38.83938 | 33116 ft | 518 kts | 79° |
| 2026-04-30 12:23 | 41.59417 | 38.93421 | 33118 ft | 517 kts | 79° |
| 2026-04-30 12:24 | 41.60605 | 39.02821 | 33123 ft | 518 kts | 79° |
| 2026-04-30 12:24 | 41.61794 | 39.12289 | 33124 ft | 518 kts | 79° |
| 2026-04-30 12:25 | 41.62981 | 39.21806 | 33122 ft | 518 kts | 79° |
| 2026-04-30 12:25 | 41.64153 | 39.31251 | 33121 ft | 519 kts | 79° |
| 2026-04-30 12:26 | 41.65323 | 39.40763 | 33126 ft | 519 kts | 79° |
| 2026-04-30 12:26 | 41.66475 | 39.50197 | 33120 ft | 518 kts | 79° |
| 2026-04-30 12:27 | 41.67624 | 39.59681 | 33126 ft | 518 kts | 79° |
| 2026-04-30 12:27 | 41.68773 | 39.69222 | 33120 ft | 518 kts | 80° |
| 2026-04-30 12:28 | 41.69907 | 39.78711 | 33129 ft | 519 kts | 80° |
| 2026-04-30 12:28 | 41.71032 | 39.88186 | 33125 ft | 519 kts | 80° |
| 2026-04-30 12:29 | 41.72159 | 39.97754 | 33130 ft | 519 kts | 80° |
| 2026-04-30 12:29 | 41.73268 | 40.07237 | 33131 ft | 520 kts | 80° |
| 2026-04-30 12:30 | 41.74376 | 40.16774 | 33128 ft | 520 kts | 80° |
| 2026-04-30 12:30 | 41.75472 | 40.26293 | 33129 ft | 520 kts | 80° |
| 2026-04-30 12:31 | 41.76561 | 40.35823 | 33122 ft | 519 kts | 80° |
| 2026-04-30 12:31 | 41.77644 | 40.45372 | 33125 ft | 519 kts | 80° |
| 2026-04-30 12:32 | 41.78714 | 40.54894 | 33120 ft | 518 kts | 80° |
| 2026-04-30 12:32 | 41.79534 | 40.64451 | 33124 ft | 519 kts | 85° |
| 2026-04-30 12:33 | 41.79539 | 40.74104 | 33119 ft | 520 kts | 94° |
| 2026-04-30 12:33 | 41.79052 | 40.83767 | 33122 ft | 520 kts | 94° |
| 2026-04-30 12:34 | 41.78544 | 40.93395 | 33121 ft | 520 kts | 94° |
| 2026-04-30 12:34 | 41.78050 | 41.03004 | 33111 ft | 519 kts | 94° |
| 2026-04-30 12:35 | 41.77552 | 41.12619 | 33110 ft | 519 kts | 94° |
| 2026-04-30 12:35 | 41.77053 | 41.22207 | 33114 ft | 520 kts | 94° |
| 2026-04-30 12:36 | 41.76542 | 41.31838 | 33112 ft | 519 kts | 94° |
| 2026-04-30 12:36 | 41.76022 | 41.41469 | 33106 ft | 519 kts | 94° |
| 2026-04-30 12:37 | 41.75496 | 41.51029 | 33114 ft | 519 kts | 94° |
| 2026-04-30 12:37 | 41.74960 | 41.60657 | 33107 ft | 518 kts | 94° |
| 2026-04-30 12:38 | 41.74419 | 41.70240 | 33105 ft | 518 kts | 95° |
| 2026-04-30 12:38 | 41.73871 | 41.79850 | 33099 ft | 518 kts | 95° |
| 2026-04-30 12:39 | 41.73316 | 41.89405 | 33103 ft | 518 kts | 95° |
| 2026-04-30 12:39 | 41.72754 | 41.98962 | 33111 ft | 517 kts | 95° |
| 2026-04-30 12:40 | 41.72171 | 42.08519 | 33123 ft | 517 kts | 96° |
| 2026-04-30 12:40 | 41.71218 | 42.18026 | 33129 ft | 517 kts | 99° |
| 2026-04-30 12:41 | 41.70169 | 42.27493 | 33131 ft | 517 kts | 98° |
| 2026-04-30 12:41 | 41.69112 | 42.37024 | 33135 ft | 517 kts | 98° |
| 2026-04-30 12:42 | 41.68065 | 42.46450 | 33145 ft | 517 kts | 98° |
| 2026-04-30 12:42 | 41.67004 | 42.55965 | 33138 ft | 517 kts | 98° |
| 2026-04-30 12:43 | 41.65939 | 42.65434 | 33143 ft | 517 kts | 99° |
| 2026-04-30 12:43 | 41.64869 | 42.74889 | 33138 ft | 516 kts | 99° |
| 2026-04-30 12:44 | 41.63786 | 42.84372 | 33139 ft | 517 kts | 99° |
| 2026-04-30 12:44 | 41.62699 | 42.93813 | 33138 ft | 517 kts | 99° |
| 2026-04-30 12:45 | 41.61603 | 43.03266 | 33145 ft | 516 kts | 99° |
| 2026-04-30 12:45 | 41.60501 | 43.12710 | 33141 ft | 517 kts | 99° |
| 2026-04-30 12:46 | 41.59388 | 43.22194 | 33139 ft | 517 kts | 99° |
| 2026-04-30 12:46 | 41.58274 | 43.31609 | 33141 ft | 516 kts | 99° |
| 2026-04-30 12:47 | 41.57150 | 43.41028 | 33138 ft | 516 kts | 99° |
| 2026-04-30 12:47 | 41.56013 | 43.50487 | 33139 ft | 515 kts | 98° |
| 2026-04-30 12:48 | 41.54882 | 43.59845 | 33136 ft | 515 kts | 98° |
| 2026-04-30 12:48 | 41.53733 | 43.69275 | 33135 ft | 515 kts | 99° |
| 2026-04-30 12:49 | 41.52580 | 43.78652 | 33129 ft | 515 kts | 99° |
| 2026-04-30 12:49 | 41.51416 | 43.88082 | 33132 ft | 515 kts | 99° |
| 2026-04-30 12:50 | 41.50254 | 43.97418 | 33126 ft | 515 kts | 99° |
| 2026-04-30 12:50 | 41.49078 | 44.06791 | 33130 ft | 514 kts | 99° |
| 2026-04-30 12:51 | 41.47899 | 44.16153 | 33136 ft | 514 kts | 99° |
| 2026-04-30 12:51 | 41.46708 | 44.25524 | 33132 ft | 515 kts | 99° |
| 2026-04-30 12:52 | 41.45508 | 44.34905 | 33126 ft | 514 kts | 99° |
| 2026-04-30 12:52 | 41.44301 | 44.44290 | 33127 ft | 513 kts | 99° |
| 2026-04-30 12:53 | 41.43093 | 44.53616 | 33120 ft | 513 kts | 99° |
| 2026-04-30 12:53 | 41.41875 | 44.62957 | 33119 ft | 513 kts | 99° |
| 2026-04-30 12:54 | 41.40653 | 44.72271 | 33107 ft | 513 kts | 99° |
| 2026-04-30 12:54 | 41.39423 | 44.81593 | 33101 ft | 512 kts | 99° |
| 2026-04-30 12:55 | 41.38189 | 44.90889 | 33100 ft | 512 kts | 99° |
| 2026-04-30 12:55 | 41.36939 | 45.00220 | 33097 ft | 513 kts | 99° |
| 2026-04-30 12:56 | 41.35451 | 45.09475 | 33098 ft | 513 kts | 105° |
| 2026-04-30 12:56 | 41.33290 | 45.18435 | 33095 ft | 512 kts | 109° |
| 2026-04-30 12:57 | 41.30962 | 45.27409 | 33086 ft | 512 kts | 109° |
| 2026-04-30 12:57 | 41.28660 | 45.36298 | 33085 ft | 511 kts | 109° |
| 2026-04-30 12:58 | 41.26358 | 45.45202 | 33084 ft | 511 kts | 109° |
| 2026-04-30 12:58 | 41.24054 | 45.54093 | 33085 ft | 511 kts | 109° |
| 2026-04-30 12:59 | 41.21726 | 45.63037 | 33092 ft | 511 kts | 109° |
| 2026-04-30 12:59 | 41.19405 | 45.71891 | 33100 ft | 510 kts | 109° |
| 2026-04-30 13:00 | 41.17062 | 45.80774 | 33096 ft | 510 kts | 109° |
| 2026-04-30 13:00 | 41.14719 | 45.89635 | 33096 ft | 510 kts | 109° |
| 2026-04-30 13:01 | 41.12370 | 45.98491 | 33092 ft | 511 kts | 109° |
| 2026-04-30 13:01 | 41.10019 | 46.07321 | 33084 ft | 509 kts | 109° |
| 2026-04-30 13:02 | 41.07683 | 46.16070 | 33082 ft | 508 kts | 109° |
| 2026-04-30 13:02 | 41.05321 | 46.24879 | 33082 ft | 508 kts | 109° |
| 2026-04-30 13:03 | 41.02963 | 46.33664 | 33082 ft | 508 kts | 109° |
| 2026-04-30 13:03 | 41.00624 | 46.42421 | 33082 ft | 508 kts | 109° |
| 2026-04-30 13:04 | 40.98275 | 46.51196 | 33076 ft | 507 kts | 109° |
| 2026-04-30 13:04 | 40.95915 | 46.59979 | 33075 ft | 506 kts | 109° |
| 2026-04-30 13:05 | 40.93550 | 46.68734 | 33067 ft | 507 kts | 110° |
| 2026-04-30 13:06 | 40.90406 | 46.81988 | 33071 ft | 506 kts | 103° |
| 2026-04-30 13:06 | 40.89208 | 46.91149 | 33070 ft | 505 kts | 96° |
| 2026-04-30 13:07 | 40.88540 | 47.00351 | 33078 ft | 504 kts | 94° |
| 2026-04-30 13:07 | 40.87896 | 47.09502 | 33088 ft | 505 kts | 94° |
| 2026-04-30 13:08 | 40.87219 | 47.18744 | 33098 ft | 505 kts | 94° |
| 2026-04-30 13:08 | 40.86533 | 47.27945 | 33102 ft | 506 kts | 95° |
| 2026-04-30 13:09 | 40.85840 | 47.37107 | 33113 ft | 505 kts | 95° |
| 2026-04-30 13:09 | 40.85136 | 47.46309 | 33123 ft | 505 kts | 95° |
| 2026-04-30 13:10 | 40.84464 | 47.55503 | 33121 ft | 505 kts | 94° |
| 2026-04-30 13:10 | 40.83910 | 47.64740 | 33121 ft | 505 kts | 93° |
| 2026-04-30 13:11 | 40.83358 | 47.73940 | 33129 ft | 505 kts | 94° |
| 2026-04-30 13:11 | 40.82787 | 47.83143 | 33130 ft | 505 kts | 94° |
| 2026-04-30 13:12 | 40.82202 | 47.92380 | 33132 ft | 505 kts | 94° |
| 2026-04-30 13:12 | 40.81610 | 48.01558 | 33140 ft | 506 kts | 94° |
| 2026-04-30 13:13 | 40.80706 | 48.15380 | 33124 ft | 505 kts | 94° |
| 2026-04-30 13:14 | 40.79790 | 48.29160 | 33113 ft | 505 kts | 94° |
| 2026-04-30 13:14 | 40.78851 | 48.43022 | 33109 ft | 506 kts | 94° |
| 2026-04-30 13:15 | 40.77898 | 48.56839 | 33109 ft | 506 kts | 94° |
| 2026-04-30 13:16 | 40.77255 | 48.66040 | 33099 ft | 507 kts | 95° |
| 2026-04-30 13:16 | 40.76604 | 48.75256 | 33109 ft | 507 kts | 95° |
| 2026-04-30 13:17 | 40.75613 | 48.89063 | 33107 ft | 507 kts | 95° |
| 2026-04-30 13:18 | 40.74603 | 49.02918 | 33105 ft | 506 kts | 95° |
| 2026-04-30 13:18 | 40.73580 | 49.16737 | 33124 ft | 506 kts | 95° |
| 2026-04-30 13:19 | 40.72823 | 49.25878 | 33136 ft | 506 kts | 98° |
| 2026-04-30 13:19 | 40.71753 | 49.35043 | 33146 ft | 506 kts | 99° |
| 2026-04-30 13:20 | 40.70659 | 49.44165 | 33151 ft | 506 kts | 99° |
| 2026-04-30 13:20 | 40.69565 | 49.53303 | 33159 ft | 505 kts | 99° |
| 2026-04-30 13:21 | 40.68469 | 49.62378 | 33150 ft | 505 kts | 99° |
| 2026-04-30 13:22 | 40.66801 | 49.76062 | 33157 ft | 505 kts | 99° |
| 2026-04-30 13:22 | 40.65129 | 49.89665 | 33160 ft | 504 kts | 99° |
| 2026-04-30 13:23 | 40.63436 | 50.03293 | 33158 ft | 504 kts | 100° |
| 2026-04-30 13:24 | 40.61165 | 50.21357 | 33160 ft | 503 kts | 100° |
| 2026-04-30 13:25 | 40.58863 | 50.39442 | 33155 ft | 501 kts | 100° |
| 2026-04-30 13:26 | 40.55959 | 50.61936 | 33151 ft | 500 kts | 100° |
| 2026-04-30 13:28 | 40.53019 | 50.84344 | 33148 ft | 499 kts | 101° |
| 2026-04-30 13:28 | 40.51457 | 50.97831 | 33146 ft | 499 kts | 98° |
| 2026-04-30 13:29 | 40.49825 | 51.15908 | 33137 ft | 499 kts | 98° |
| 2026-04-30 13:31 | 40.47737 | 51.38427 | 33138 ft | 498 kts | 98° |
| 2026-04-30 13:32 | 40.44708 | 51.60654 | 33145 ft | 497 kts | 105° |
| 2026-04-30 13:33 | 40.41462 | 51.78234 | 33135 ft | 497 kts | 105° |
| 2026-04-30 13:34 | 40.39033 | 51.91360 | 33138 ft | 496 kts | 105° |
| 2026-04-30 13:35 | 40.35767 | 52.08885 | 33141 ft | 496 kts | 105° |
| 2026-04-30 13:36 | 40.32475 | 52.26391 | 33140 ft | 496 kts | 105° |
| 2026-04-30 13:36 | 40.29999 | 52.39463 | 33132 ft | 496 kts | 105° |
| 2026-04-30 13:37 | 40.27502 | 52.52564 | 33123 ft | 495 kts | 105° |
| 2026-04-30 13:38 | 40.24994 | 52.65622 | 33137 ft | 495 kts | 106° |
| 2026-04-30 13:39 | 40.21631 | 52.83043 | 33120 ft | 496 kts | 107° |
| 2026-04-30 13:40 | 40.19085 | 52.96141 | 33114 ft | 496 kts | 107° |
| 2026-04-30 13:40 | 40.17390 | 53.04798 | 33121 ft | 495 kts | 107° |
| 2026-04-30 13:41 | 40.15683 | 53.13487 | 33124 ft | 494 kts | 106° |
| 2026-04-30 13:41 | 40.13966 | 53.22200 | 33120 ft | 494 kts | 106° |
| 2026-04-30 13:42 | 40.12255 | 53.30838 | 33125 ft | 494 kts | 106° |
| 2026-04-30 13:42 | 40.09675 | 53.43803 | 33119 ft | 494 kts | 107° |
| 2026-04-30 13:43 | 40.07942 | 53.52446 | 33130 ft | 494 kts | 107° |
| 2026-04-30 13:43 | 40.06194 | 53.61137 | 33128 ft | 495 kts | 107° |
| 2026-04-30 13:44 | 40.04458 | 53.69738 | 33112 ft | 495 kts | 107° |
| 2026-04-30 13:44 | 40.02703 | 53.78397 | 33108 ft | 495 kts | 107° |
| 2026-04-30 13:45 | 40.00061 | 53.91365 | 33109 ft | 494 kts | 107° |
| 2026-04-30 13:46 | 39.98298 | 53.99977 | 33104 ft | 493 kts | 107° |
| 2026-04-30 13:46 | 39.96528 | 54.08580 | 33105 ft | 494 kts | 107° |
| 2026-04-30 13:47 | 39.94739 | 54.17248 | 33096 ft | 494 kts | 107° |
| 2026-04-30 13:47 | 39.92960 | 54.25833 | 33095 ft | 494 kts | 107° |
| 2026-04-30 13:48 | 39.91166 | 54.34458 | 33089 ft | 494 kts | 107° |
| 2026-04-30 13:48 | 39.89368 | 54.43059 | 33084 ft | 494 kts | 107° |
| 2026-04-30 13:49 | 39.87562 | 54.51623 | 33092 ft | 495 kts | 108° |
| 2026-04-30 13:49 | 39.85732 | 54.60231 | 33086 ft | 495 kts | 108° |
| 2026-04-30 13:50 | 39.83894 | 54.68857 | 33072 ft | 494 kts | 108° |
| 2026-04-30 13:50 | 39.81146 | 54.81710 | 33080 ft | 493 kts | 108° |
| 2026-04-30 13:51 | 39.79310 | 54.90299 | 33074 ft | 494 kts | 108° |
| 2026-04-30 13:51 | 39.77480 | 54.98832 | 33076 ft | 494 kts | 108° |
| 2026-04-30 13:52 | 39.75634 | 55.07407 | 33074 ft | 494 kts | 108° |
| 2026-04-30 13:52 | 39.73780 | 55.15992 | 33065 ft | 494 kts | 109° |
| 2026-04-30 13:53 | 39.71927 | 55.24530 | 33072 ft | 495 kts | 109° |
| 2026-04-30 13:53 | 39.69766 | 55.32992 | 33073 ft | 492 kts | 114° |
| 2026-04-30 13:54 | 39.66954 | 55.40993 | 33067 ft | 488 kts | 121° |
| 2026-04-30 13:54 | 39.63578 | 55.48554 | 33072 ft | 486 kts | 124° |
| 2026-04-30 13:55 | 39.60095 | 55.56072 | 33068 ft | 485 kts | 124° |
| 2026-04-30 13:55 | 39.56619 | 55.63569 | 33072 ft | 485 kts | 124° |
| 2026-04-30 13:56 | 39.53170 | 55.71030 | 33070 ft | 485 kts | 125° |
| 2026-04-30 13:56 | 39.49720 | 55.78480 | 33076 ft | 485 kts | 126° |
| 2026-04-30 13:57 | 39.46267 | 55.85981 | 33079 ft | 485 kts | 125° |
| 2026-04-30 13:57 | 39.42873 | 55.93427 | 33073 ft | 484 kts | 125° |
| 2026-04-30 13:58 | 39.37737 | 56.04656 | 33078 ft | 484 kts | 125° |
| 2026-04-30 13:59 | 39.34326 | 56.12096 | 33077 ft | 484 kts | 125° |
| 2026-04-30 13:59 | 39.30886 | 56.19572 | 33078 ft | 484 kts | 125° |
| 2026-04-30 14:00 | 39.27460 | 56.27007 | 33079 ft | 484 kts | 125° |
| 2026-04-30 14:00 | 39.22310 | 56.38159 | 33075 ft | 484 kts | 125° |
| 2026-04-30 14:01 | 39.18870 | 56.45587 | 33078 ft | 484 kts | 126° |
| 2026-04-30 14:01 | 39.15425 | 56.52994 | 33070 ft | 485 kts | 126° |
| 2026-04-30 14:02 | 39.11958 | 56.60426 | 33080 ft | 484 kts | 125° |
| 2026-04-30 14:02 | 39.08517 | 56.67822 | 33068 ft | 483 kts | 126° |
| 2026-04-30 14:03 | 39.05051 | 56.75227 | 33071 ft | 483 kts | 127° |
| 2026-04-30 14:03 | 39.01588 | 56.82611 | 33075 ft | 482 kts | 127° |
| 2026-04-30 14:04 | 38.98131 | 56.89948 | 33069 ft | 482 kts | 127° |
| 2026-04-30 14:04 | 38.94670 | 56.97288 | 33074 ft | 483 kts | 127° |
| 2026-04-30 14:05 | 38.91206 | 57.04641 | 33064 ft | 483 kts | 127° |
| 2026-04-30 14:05 | 38.87700 | 57.12041 | 33071 ft | 484 kts | 127° |
| 2026-04-30 14:06 | 38.82471 | 57.23052 | 33070 ft | 484 kts | 127° |
| 2026-04-30 14:07 | 38.77230 | 57.34065 | 33069 ft | 485 kts | 127° |
| 2026-04-30 14:08 | 38.71977 | 57.45056 | 33075 ft | 484 kts | 127° |
| 2026-04-30 14:08 | 38.66699 | 57.56060 | 33063 ft | 484 kts | 127° |
| 2026-04-30 14:09 | 38.63188 | 57.63397 | 33078 ft | 486 kts | 126° |
| 2026-04-30 14:10 | 38.58678 | 57.75041 | 33074 ft | 491 kts | 120° |
| 2026-04-30 14:10 | 38.55916 | 57.82979 | 33074 ft | 491 kts | 120° |
| 2026-04-30 14:11 | 38.53130 | 57.90954 | 33080 ft | 492 kts | 120° |
| 2026-04-30 14:11 | 38.50331 | 57.98934 | 33082 ft | 492 kts | 120° |
| 2026-04-30 14:12 | 38.47535 | 58.06875 | 33073 ft | 493 kts | 120° |
| 2026-04-30 14:12 | 38.44732 | 58.14817 | 33075 ft | 493 kts | 120° |
| 2026-04-30 14:13 | 38.41931 | 58.22752 | 33087 ft | 493 kts | 119° |
| 2026-04-30 14:13 | 38.39504 | 58.30967 | 33077 ft | 499 kts | 112° |
| 2026-04-30 14:14 | 38.37690 | 58.39508 | 33080 ft | 502 kts | 109° |
| 2026-04-30 14:14 | 38.35994 | 58.48098 | 33079 ft | 502 kts | 109° |
| 2026-04-30 14:15 | 38.34286 | 58.56690 | 33077 ft | 503 kts | 109° |
| 2026-04-30 14:15 | 38.32560 | 58.65306 | 33076 ft | 502 kts | 109° |
| 2026-04-30 14:16 | 38.30832 | 58.73874 | 33074 ft | 502 kts | 109° |
| 2026-04-30 14:16 | 38.29094 | 58.82439 | 33073 ft | 503 kts | 109° |
| 2026-04-30 14:17 | 38.27346 | 58.91020 | 33068 ft | 504 kts | 109° |
| 2026-04-30 14:17 | 38.25588 | 58.99634 | 33062 ft | 503 kts | 109° |
| 2026-04-30 14:18 | 38.23830 | 59.08204 | 33061 ft | 504 kts | 109° |
| 2026-04-30 14:18 | 38.21167 | 59.21115 | 33057 ft | 506 kts | 109° |
| 2026-04-30 14:19 | 38.18492 | 59.34039 | 33055 ft | 506 kts | 109° |
| 2026-04-30 14:20 | 38.16698 | 59.42645 | 33057 ft | 506 kts | 109° |
| 2026-04-30 14:20 | 38.13989 | 59.55585 | 33056 ft | 507 kts | 108° |
| 2026-04-30 14:21 | 38.12175 | 59.64246 | 33054 ft | 508 kts | 109° |
| 2026-04-30 14:22 | 38.09436 | 59.77190 | 33052 ft | 509 kts | 110° |
| 2026-04-30 14:22 | 38.06671 | 59.90161 | 33049 ft | 510 kts | 109° |
| 2026-04-30 14:23 | 38.02958 | 60.07518 | 33048 ft | 512 kts | 109° |
| 2026-04-30 14:24 | 38.00151 | 60.20533 | 33047 ft | 512 kts | 109° |
| 2026-04-30 14:25 | 37.96373 | 60.37832 | 33058 ft | 514 kts | 110° |
| 2026-04-30 14:26 | 37.94441 | 60.46612 | 33404 ft | 517 kts | 109° |
| 2026-04-30 14:26 | 37.93486 | 60.50978 | 33693 ft | 515 kts | 109° |
| 2026-04-30 14:26 | 37.91585 | 60.59625 | 34209 ft | 514 kts | 110° |
| 2026-04-30 14:27 | 37.90624 | 60.63960 | 34385 ft | 515 kts | 110° |
| 2026-04-30 14:27 | 37.89642 | 60.68362 | 34567 ft | 516 kts | 110° |
| 2026-04-30 14:27 | 37.88676 | 60.72710 | 34750 ft | 517 kts | 110° |
| 2026-04-30 14:28 | 37.86729 | 60.81465 | 35112 ft | 519 kts | 110° |
| 2026-04-30 14:28 | 37.85754 | 60.85864 | 35297 ft | 519 kts | 110° |
| 2026-04-30 14:28 | 37.84777 | 60.90245 | 35452 ft | 521 kts | 110° |
| 2026-04-30 14:28 | 37.83796 | 60.94639 | 35598 ft | 522 kts | 110° |
| 2026-04-30 14:29 | 37.81814 | 61.03453 | 35905 ft | 524 kts | 111° |
| 2026-04-30 14:29 | 37.79810 | 61.12286 | 36142 ft | 528 kts | 111° |
| 2026-04-30 14:30 | 37.76774 | 61.25684 | 36538 ft | 531 kts | 111° |
| 2026-04-30 14:31 | 37.74736 | 61.34659 | 36771 ft | 533 kts | 111° |
| 2026-04-30 14:31 | 37.72680 | 61.43613 | 36927 ft | 537 kts | 111° |
| 2026-04-30 14:31 | 37.71633 | 61.48192 | 36982 ft | 539 kts | 110° |
| 2026-04-30 14:32 | 37.68512 | 61.61787 | 36972 ft | 540 kts | 110° |
| 2026-04-30 14:33 | 37.66427 | 61.70807 | 36970 ft | 540 kts | 111° |
| 2026-04-30 14:33 | 37.62912 | 61.84251 | 36956 ft | 535 kts | 119° |
| 2026-04-30 14:34 | 37.59667 | 61.92588 | 36959 ft | 527 kts | 127° |
| 2026-04-30 14:34 | 37.55677 | 62.00277 | 36956 ft | 522 kts | 134° |
| 2026-04-30 14:35 | 37.49192 | 62.11199 | 36947 ft | 522 kts | 134° |
| 2026-04-30 14:36 | 37.44857 | 62.18519 | 36947 ft | 522 kts | 134° |
| 2026-04-30 14:36 | 37.40513 | 62.25861 | 36949 ft | 524 kts | 134° |
| 2026-04-30 14:37 | 37.36189 | 62.33184 | 36946 ft | 523 kts | 134° |
| 2026-04-30 14:37 | 37.31846 | 62.40490 | 36948 ft | 524 kts | 134° |
| 2026-04-30 14:38 | 37.27497 | 62.47803 | 36947 ft | 524 kts | 134° |
| 2026-04-30 14:38 | 37.23155 | 62.55115 | 36950 ft | 524 kts | 134° |
| 2026-04-30 14:39 | 37.18789 | 62.62398 | 36951 ft | 525 kts | 134° |
| 2026-04-30 14:39 | 37.14416 | 62.69694 | 36948 ft | 526 kts | 134° |
| 2026-04-30 14:40 | 37.07848 | 62.80659 | 36933 ft | 526 kts | 135° |
| 2026-04-30 14:40 | 37.03449 | 62.87952 | 36929 ft | 526 kts | 134° |
| 2026-04-30 14:41 | 36.99036 | 62.95264 | 36938 ft | 529 kts | 134° |
| 2026-04-30 14:41 | 36.94617 | 63.02594 | 36948 ft | 530 kts | 134° |
| 2026-04-30 14:42 | 36.90184 | 63.09920 | 36959 ft | 529 kts | 134° |
| 2026-04-30 14:42 | 36.85754 | 63.17232 | 36951 ft | 528 kts | 135° |
| 2026-04-30 14:43 | 36.81330 | 63.24477 | 36959 ft | 529 kts | 135° |
| 2026-04-30 14:43 | 36.76874 | 63.31766 | 36955 ft | 529 kts | 135° |
| 2026-04-30 14:44 | 36.72414 | 63.39080 | 36958 ft | 529 kts | 135° |
| 2026-04-30 14:44 | 36.67950 | 63.46365 | 36969 ft | 531 kts | 134° |
| 2026-04-30 14:45 | 36.63484 | 63.53650 | 36971 ft | 532 kts | 135° |
| 2026-04-30 14:45 | 36.59014 | 63.60948 | 36978 ft | 533 kts | 135° |
| 2026-04-30 14:46 | 36.54489 | 63.68270 | 36980 ft | 533 kts | 135° |
| 2026-04-30 14:46 | 36.49965 | 63.75589 | 36997 ft | 533 kts | 135° |
| 2026-04-30 14:47 | 36.45462 | 63.82872 | 37002 ft | 535 kts | 136° |
| 2026-04-30 14:47 | 36.40916 | 63.90188 | 37003 ft | 535 kts | 136° |
| 2026-04-30 14:48 | 36.36414 | 63.97442 | 37001 ft | 534 kts | 136° |
| 2026-04-30 14:48 | 36.31862 | 64.04751 | 36997 ft | 535 kts | 136° |
| 2026-04-30 14:49 | 36.27327 | 64.12013 | 36985 ft | 536 kts | 136° |
| 2026-04-30 14:49 | 36.22785 | 64.19286 | 36971 ft | 536 kts | 136° |
| 2026-04-30 14:50 | 36.15913 | 64.30234 | 36975 ft | 539 kts | 135° |
| 2026-04-30 14:51 | 36.09281 | 64.41413 | 36987 ft | 540 kts | 133° |
| 2026-04-30 14:52 | 36.02606 | 64.52674 | 37001 ft | 541 kts | 134° |
| 2026-04-30 14:52 | 35.95928 | 64.63839 | 37014 ft | 543 kts | 133° |
| 2026-04-30 14:53 | 35.89207 | 64.75073 | 37070 ft | 543 kts | 134° |
| 2026-04-30 14:54 | 35.80225 | 64.90015 | 37133 ft | 543 kts | 133° |
| 2026-04-30 14:55 | 35.73473 | 65.01200 | 37196 ft | 544 kts | 134° |
| 2026-04-30 14:56 | 35.64458 | 65.16077 | 37242 ft | 543 kts | 134° |
| 2026-04-30 14:57 | 35.57675 | 65.27226 | 37300 ft | 544 kts | 134° |
| 2026-04-30 14:58 | 35.48620 | 65.42055 | 37329 ft | 546 kts | 133° |
| 2026-04-30 14:58 | 35.41813 | 65.53166 | 37372 ft | 546 kts | 133° |
| 2026-04-30 15:00 | 35.30450 | 65.71633 | 37402 ft | 545 kts | 133° |
| 2026-04-30 15:01 | 35.21321 | 65.86401 | 37435 ft | 545 kts | 134° |
| 2026-04-30 15:01 | 35.14471 | 65.97447 | 37452 ft | 544 kts | 133° |
| 2026-04-30 15:02 | 35.09912 | 66.04768 | 37486 ft | 546 kts | 133° |
| 2026-04-30 15:03 | 34.98457 | 66.23140 | 37529 ft | 544 kts | 133° |
| 2026-04-30 15:04 | 34.86935 | 66.41309 | 37532 ft | 543 kts | 133° |
| 2026-04-30 15:06 | 34.75362 | 66.59447 | 37536 ft | 543 kts | 133° |
| 2026-04-30 15:07 | 34.66071 | 66.73953 | 37536 ft | 543 kts | 134° |
| 2026-04-30 15:08 | 34.56811 | 66.88354 | 37499 ft | 542 kts | 134° |
| 2026-04-30 15:09 | 34.45169 | 67.06311 | 37511 ft | 544 kts | 133° |
| 2026-04-30 15:10 | 34.35813 | 67.20697 | 37492 ft | 543 kts | 133° |
| 2026-04-30 15:11 | 34.21781 | 67.42167 | 37467 ft | 543 kts | 133° |
| 2026-04-30 15:13 | 34.10036 | 67.60038 | 37483 ft | 546 kts | 133° |
| 2026-04-30 15:14 | 33.93512 | 67.84969 | 37473 ft | 543 kts | 135° |
| 2026-04-30 15:17 | 33.72070 | 68.16647 | 37393 ft | 543 kts | 134° |
| 2026-04-30 15:19 | 33.52952 | 68.44653 | 37337 ft | 543 kts | 135° |
| 2026-04-30 17:39 | 20.55439 | 87.10091 | 36835 ft | 508 kts | 132° |
| 2026-04-30 17:42 | 20.31598 | 87.37748 | 36831 ft | 505 kts | 133° |
| 2026-04-30 17:43 | 20.18867 | 87.52355 | 36839 ft | 504 kts | 133° |
| 2026-04-30 17:44 | 20.05382 | 87.67797 | 36848 ft | 502 kts | 134° |
| 2026-04-30 17:47 | 19.83226 | 87.93071 | 36844 ft | 500 kts | 134° |
| 2026-04-30 17:48 | 19.66629 | 88.11929 | 36847 ft | 500 kts | 134° |
| 2026-04-30 17:50 | 19.47650 | 88.33431 | 36847 ft | 498 kts | 134° |
| 2026-04-30 17:52 | 19.34231 | 88.48589 | 36848 ft | 499 kts | 134° |
| 2026-04-30 17:54 | 19.11995 | 88.73328 | 36855 ft | 496 kts | 136° |
| 2026-04-30 17:56 | 18.92628 | 88.94042 | 36861 ft | 495 kts | 136° |
| 2026-04-30 17:58 | 18.78090 | 89.09579 | 36880 ft | 495 kts | 135° |
| 2026-04-30 18:00 | 18.58693 | 89.30247 | 36879 ft | 496 kts | 135° |
| 2026-04-30 18:01 | 18.46552 | 89.43150 | 36876 ft | 497 kts | 135° |
| 2026-04-30 18:02 | 18.31968 | 89.58611 | 36878 ft | 496 kts | 136° |
| 2026-04-30 18:04 | 18.17392 | 89.74027 | 36879 ft | 496 kts | 136° |
| 2026-04-30 18:06 | 17.97949 | 89.94530 | 36879 ft | 495 kts | 136° |
| 2026-04-30 18:08 | 17.80939 | 90.12409 | 36890 ft | 494 kts | 137° |
| 2026-04-30 18:10 | 17.61506 | 90.32778 | 36887 ft | 494 kts | 137° |
| 2026-04-30 18:11 | 17.44485 | 90.50587 | 36894 ft | 493 kts | 137° |
| 2026-04-30 18:13 | 17.32409 | 90.63352 | 36874 ft | 495 kts | 137° |
| 2026-04-30 18:14 | 17.20380 | 90.76204 | 36878 ft | 495 kts | 138° |
| 2026-04-30 18:15 | 17.05942 | 90.91589 | 36880 ft | 494 kts | 138° |
| 2026-04-30 18:16 | 16.96308 | 91.01836 | 36881 ft | 493 kts | 138° |
| 2026-04-30 18:17 | 16.91495 | 91.06950 | 36884 ft | 493 kts | 138° |
| 2026-04-30 18:18 | 16.84295 | 91.14590 | 36887 ft | 493 kts | 138° |
| 2026-04-30 18:18 | 16.79489 | 91.19688 | 36883 ft | 493 kts | 139° |
| 2026-04-30 18:19 | 16.74705 | 91.24756 | 36881 ft | 493 kts | 139° |
| 2026-04-30 18:19 | 16.69886 | 91.29854 | 36884 ft | 493 kts | 139° |
| 2026-04-30 18:20 | 16.65069 | 91.34952 | 36883 ft | 492 kts | 139° |
| 2026-04-30 18:20 | 16.60249 | 91.40047 | 36883 ft | 493 kts | 139° |
| 2026-04-30 18:21 | 16.55460 | 91.45106 | 36882 ft | 492 kts | 139° |
| 2026-04-30 18:21 | 16.50649 | 91.50185 | 36882 ft | 492 kts | 139° |
| 2026-04-30 18:22 | 16.45843 | 91.55254 | 36880 ft | 492 kts | 139° |
| 2026-04-30 18:22 | 16.38637 | 91.62848 | 36879 ft | 491 kts | 139° |
| 2026-04-30 18:23 | 16.33830 | 91.67911 | 36879 ft | 491 kts | 139° |
| 2026-04-30 18:23 | 16.29031 | 91.72960 | 36879 ft | 491 kts | 139° |
| 2026-04-30 18:24 | 16.21835 | 91.80525 | 36878 ft | 491 kts | 139° |
| 2026-04-30 18:25 | 16.17026 | 91.85580 | 36878 ft | 490 kts | 139° |
| 2026-04-30 18:25 | 16.09844 | 91.93127 | 36881 ft | 490 kts | 139° |
| 2026-04-30 18:26 | 16.02642 | 92.00684 | 36878 ft | 490 kts | 140° |
| 2026-04-30 18:27 | 15.95431 | 92.08199 | 36881 ft | 489 kts | 140° |
| 2026-04-30 18:28 | 15.88254 | 92.15695 | 36876 ft | 488 kts | 139° |
| 2026-04-30 18:28 | 15.81060 | 92.23210 | 36864 ft | 489 kts | 139° |
| 2026-04-30 18:29 | 15.71473 | 92.33211 | 36861 ft | 489 kts | 139° |
| 2026-04-30 18:30 | 15.61867 | 92.43222 | 36861 ft | 487 kts | 139° |
| 2026-04-30 18:31 | 15.54709 | 92.50681 | 36861 ft | 488 kts | 139° |
| 2026-04-30 18:32 | 15.47516 | 92.58176 | 36860 ft | 489 kts | 139° |
| 2026-04-30 18:33 | 15.40348 | 92.65698 | 36859 ft | 490 kts | 138° |
| 2026-04-30 18:33 | 15.33338 | 92.73406 | 36863 ft | 490 kts | 138° |
| 2026-04-30 18:34 | 15.26342 | 92.81099 | 36860 ft | 488 kts | 137° |
| 2026-04-30 18:35 | 15.21685 | 92.86207 | 36862 ft | 488 kts | 137° |
| 2026-04-30 18:35 | 15.17042 | 92.91296 | 36863 ft | 488 kts | 137° |
| 2026-04-30 18:36 | 15.10063 | 92.98939 | 36862 ft | 488 kts | 137° |
| 2026-04-30 18:37 | 15.03054 | 93.06608 | 36858 ft | 488 kts | 137° |
| 2026-04-30 18:37 | 14.98369 | 93.11729 | 36861 ft | 489 kts | 137° |
| 2026-04-30 18:38 | 14.93695 | 93.16833 | 36861 ft | 489 kts | 137° |
| 2026-04-30 18:38 | 14.89017 | 93.21938 | 36862 ft | 489 kts | 137° |
| 2026-04-30 18:39 | 14.84320 | 93.27062 | 36859 ft | 489 kts | 137° |
| 2026-04-30 18:39 | 14.79663 | 93.32139 | 36860 ft | 489 kts | 137° |
| 2026-04-30 18:40 | 14.74988 | 93.37231 | 36860 ft | 488 kts | 137° |
| 2026-04-30 18:40 | 14.70314 | 93.42320 | 36858 ft | 489 kts | 137° |
| 2026-04-30 18:41 | 14.65639 | 93.47406 | 36862 ft | 488 kts | 137° |
| 2026-04-30 18:41 | 14.60974 | 93.52477 | 36862 ft | 488 kts | 137° |
| 2026-04-30 18:42 | 14.56282 | 93.57574 | 36863 ft | 488 kts | 137° |
| 2026-04-30 18:42 | 14.49278 | 93.65178 | 36859 ft | 488 kts | 137° |
| 2026-04-30 18:45 | 14.23581 | 93.93010 | 36838 ft | 487 kts | 137° |
| 2026-04-30 18:46 | 14.18899 | 93.98070 | 36833 ft | 487 kts | 137° |
| 2026-04-30 18:46 | 14.14244 | 94.03096 | 36838 ft | 485 kts | 137° |
| 2026-04-30 18:47 | 14.09568 | 94.08144 | 36836 ft | 485 kts | 137° |
| 2026-04-30 18:47 | 14.04925 | 94.13154 | 36838 ft | 485 kts | 137° |
| 2026-04-30 18:48 | 14.00265 | 94.18178 | 36844 ft | 486 kts | 137° |
| 2026-04-30 18:48 | 13.95588 | 94.23216 | 36853 ft | 486 kts | 137° |
| 2026-04-30 18:49 | 13.90908 | 94.28256 | 36857 ft | 485 kts | 137° |
| 2026-04-30 18:49 | 13.86268 | 94.33249 | 36858 ft | 484 kts | 137° |
| 2026-04-30 18:50 | 13.81617 | 94.38251 | 36858 ft | 484 kts | 136° |
| 2026-04-30 18:50 | 13.76944 | 94.43274 | 36857 ft | 483 kts | 137° |
| 2026-04-30 18:51 | 13.72321 | 94.48239 | 36858 ft | 483 kts | 137° |
| 2026-04-30 18:51 | 13.67678 | 94.53222 | 36856 ft | 483 kts | 137° |
| 2026-04-30 18:52 | 13.63008 | 94.58231 | 36856 ft | 483 kts | 136° |
| 2026-04-30 18:52 | 13.58391 | 94.63183 | 36856 ft | 482 kts | 137° |
| 2026-04-30 18:53 | 13.53742 | 94.68165 | 36855 ft | 482 kts | 137° |
| 2026-04-30 18:53 | 13.49110 | 94.73125 | 36855 ft | 482 kts | 137° |
| 2026-04-30 18:54 | 13.44465 | 94.78096 | 36856 ft | 481 kts | 137° |
| 2026-04-30 18:54 | 13.39808 | 94.83076 | 36857 ft | 481 kts | 137° |
| 2026-04-30 18:55 | 13.35199 | 94.88004 | 36858 ft | 481 kts | 137° |
| 2026-04-30 18:55 | 13.28246 | 94.95433 | 36856 ft | 481 kts | 136° |
| 2026-04-30 18:56 | 13.21279 | 95.02871 | 36847 ft | 481 kts | 137° |
| 2026-04-30 18:57 | 13.14311 | 95.10303 | 36839 ft | 481 kts | 137° |
| 2026-04-30 18:57 | 13.09696 | 95.15219 | 36838 ft | 481 kts | 137° |
| 2026-04-30 18:58 | 13.02737 | 95.22634 | 36838 ft | 481 kts | 136° |
| 2026-04-30 18:59 | 12.95782 | 95.30043 | 36838 ft | 480 kts | 137° |
| 2026-04-30 19:00 | 12.86502 | 95.39925 | 36844 ft | 480 kts | 137° |
| 2026-04-30 19:01 | 12.77142 | 95.49644 | 36849 ft | 480 kts | 137° |
| 2026-04-30 19:02 | 12.70085 | 95.56918 | 36854 ft | 480 kts | 137° |
| 2026-04-30 19:03 | 12.60678 | 95.66628 | 36857 ft | 479 kts | 138° |
| 2026-04-30 19:04 | 12.51283 | 95.76323 | 36858 ft | 480 kts | 137° |
| 2026-04-30 19:05 | 12.41873 | 95.86025 | 36858 ft | 480 kts | 137° |
| 2026-04-30 19:06 | 12.32487 | 95.95692 | 36858 ft | 479 kts | 137° |
| 2026-04-30 19:06 | 12.25445 | 96.02939 | 36857 ft | 479 kts | 137° |
| 2026-04-30 19:07 | 12.18391 | 96.10191 | 36856 ft | 480 kts | 137° |
| 2026-04-30 19:08 | 12.08974 | 96.19872 | 36855 ft | 480 kts | 137° |
| 2026-04-30 19:09 | 12.01937 | 96.27110 | 36846 ft | 480 kts | 137° |
| 2026-04-30 19:09 | 11.97199 | 96.31972 | 36841 ft | 480 kts | 138° |
| 2026-04-30 19:10 | 11.86848 | 96.40436 | 36834 ft | 477 kts | 150° |
| 2026-04-30 19:11 | 11.78138 | 96.45281 | 36835 ft | 476 kts | 156° |
| 2026-04-30 19:12 | 11.72175 | 96.48309 | 36838 ft | 477 kts | 156° |
| 2026-04-30 19:12 | 11.66242 | 96.51324 | 36840 ft | 477 kts | 156° |
| 2026-04-30 19:13 | 11.54347 | 96.57375 | 36842 ft | 476 kts | 156° |
| 2026-04-30 19:14 | 11.48431 | 96.60383 | 36845 ft | 477 kts | 156° |
| 2026-04-30 19:14 | 11.42475 | 96.63409 | 36852 ft | 477 kts | 156° |
| 2026-04-30 19:15 | 11.36515 | 96.66438 | 36855 ft | 477 kts | 156° |
| 2026-04-30 19:15 | 11.27698 | 96.70915 | 36858 ft | 476 kts | 156° |
| 2026-04-30 19:16 | 11.21776 | 96.73920 | 36858 ft | 476 kts | 156° |
| 2026-04-30 19:17 | 11.13839 | 96.77944 | 36858 ft | 476 kts | 156° |
| 2026-04-30 19:17 | 11.03957 | 96.82954 | 36858 ft | 476 kts | 156° |
| 2026-04-30 19:18 | 10.95031 | 96.87474 | 36858 ft | 476 kts | 156° |
| 2026-04-30 19:19 | 10.89108 | 96.90472 | 36855 ft | 476 kts | 156° |
| 2026-04-30 19:19 | 10.80186 | 96.94985 | 36854 ft | 476 kts | 156° |
| 2026-04-30 19:20 | 10.74267 | 96.97978 | 36854 ft | 476 kts | 156° |
| 2026-04-30 19:21 | 10.65348 | 97.02486 | 36851 ft | 476 kts | 155° |
| 2026-04-30 19:22 | 10.53488 | 97.08476 | 36852 ft | 476 kts | 155° |
| 2026-04-30 19:23 | 10.35659 | 97.17471 | 36841 ft | 476 kts | 155° |
| 2026-04-30 19:24 | 10.26736 | 97.21973 | 36836 ft | 476 kts | 155° |
| 2026-04-30 19:25 | 10.11920 | 97.29447 | 36832 ft | 476 kts | 155° |
| 2026-04-30 19:26 | 10.00038 | 97.35437 | 36839 ft | 476 kts | 155° |
| 2026-04-30 19:27 | 9.91114 | 97.39942 | 36840 ft | 475 kts | 155° |
| 2026-04-30 19:28 | 9.82229 | 97.44447 | 36839 ft | 475 kts | 154° |
| 2026-04-30 19:29 | 9.70408 | 97.50443 | 36837 ft | 475 kts | 154° |
| 2026-04-30 19:30 | 9.58593 | 97.56432 | 36838 ft | 474 kts | 154° |
| 2026-04-30 19:31 | 9.46761 | 97.62429 | 36839 ft | 473 kts | 154° |
| 2026-04-30 19:31 | 9.37902 | 97.66919 | 36840 ft | 473 kts | 154° |
| 2026-04-30 19:32 | 9.32009 | 97.69904 | 36843 ft | 473 kts | 154° |
| 2026-04-30 19:32 | 9.26129 | 97.72881 | 36846 ft | 472 kts | 154° |
| 2026-04-30 19:33 | 9.20214 | 97.75872 | 36851 ft | 472 kts | 154° |
| 2026-04-30 19:33 | 9.14344 | 97.78844 | 36856 ft | 472 kts | 154° |
| 2026-04-30 19:34 | 9.08439 | 97.81838 | 36859 ft | 473 kts | 154° |
| 2026-04-30 19:35 | 8.99617 | 97.86295 | 36854 ft | 473 kts | 154° |
| 2026-04-30 19:35 | 8.93722 | 97.89250 | 36858 ft | 472 kts | 154° |
| 2026-04-30 19:36 | 8.87817 | 97.92218 | 36858 ft | 472 kts | 154° |
| 2026-04-30 19:36 | 8.78982 | 97.96667 | 36856 ft | 472 kts | 154° |
| 2026-04-30 19:37 | 8.73076 | 97.99642 | 36847 ft | 472 kts | 154° |
| 2026-04-30 19:37 | 8.67187 | 98.02613 | 36840 ft | 472 kts | 154° |
| 2026-04-30 19:38 | 8.61323 | 98.05571 | 36839 ft | 471 kts | 154° |
| 2026-04-30 19:38 | 8.55420 | 98.08543 | 36840 ft | 471 kts | 154° |
| 2026-04-30 19:39 | 8.49553 | 98.11483 | 36840 ft | 471 kts | 154° |
| 2026-04-30 19:39 | 8.43697 | 98.14424 | 36842 ft | 470 kts | 153° |
| 2026-04-30 19:40 | 8.37819 | 98.17381 | 36842 ft | 470 kts | 153° |
| 2026-04-30 19:40 | 8.31949 | 98.20338 | 36845 ft | 470 kts | 153° |
| 2026-04-30 19:41 | 8.26112 | 98.23280 | 36846 ft | 470 kts | 153° |
| 2026-04-30 19:41 | 8.20245 | 98.26235 | 36847 ft | 470 kts | 153° |
| 2026-04-30 19:42 | 8.14428 | 98.29272 | 36850 ft | 470 kts | 150° |
| 2026-04-30 19:42 | 8.08905 | 98.32830 | 36851 ft | 469 kts | 144° |
| 2026-04-30 19:43 | 8.03739 | 98.36912 | 36852 ft | 469 kts | 141° |
| 2026-04-30 19:44 | 7.96155 | 98.43175 | 36849 ft | 469 kts | 140° |
| 2026-04-30 19:44 | 7.91126 | 98.47322 | 36851 ft | 469 kts | 140° |
| 2026-04-30 19:45 | 7.86075 | 98.51485 | 36851 ft | 469 kts | 140° |
| 2026-04-30 19:45 | 7.81014 | 98.55656 | 36846 ft | 469 kts | 140° |
| 2026-04-30 19:46 | 7.75971 | 98.59814 | 36847 ft | 469 kts | 140° |
| 2026-04-30 19:46 | 7.70892 | 98.63989 | 36847 ft | 468 kts | 140° |
| 2026-04-30 19:47 | 7.65858 | 98.68113 | 36847 ft | 468 kts | 140° |
| 2026-04-30 19:47 | 7.60791 | 98.72277 | 36846 ft | 468 kts | 140° |
| 2026-04-30 19:48 | 7.55737 | 98.76437 | 36850 ft | 468 kts | 140° |
| 2026-04-30 19:48 | 7.50675 | 98.80608 | 36921 ft | 473 kts | 140° |
| 2026-04-30 19:48 | 7.48132 | 98.82697 | 37161 ft | 474 kts | 140° |
| 2026-04-30 19:49 | 7.45566 | 98.84802 | 37496 ft | 474 kts | 140° |
| 2026-04-30 19:49 | 7.40461 | 98.88965 | 38175 ft | 472 kts | 140° |
| 2026-04-30 19:49 | 7.37903 | 98.91053 | 38503 ft | 471 kts | 140° |
| 2026-04-30 19:50 | 7.35345 | 98.93145 | 38820 ft | 471 kts | 140° |
| 2026-04-30 19:50 | 7.32830 | 98.95203 | 38853 ft | 471 kts | 140° |
| 2026-04-30 19:50 | 7.27743 | 98.99368 | 38855 ft | 471 kts | 140° |
| 2026-04-30 19:51 | 7.22623 | 99.03561 | 38849 ft | 471 kts | 140° |
| 2026-04-30 19:51 | 7.17576 | 99.07694 | 38845 ft | 470 kts | 140° |
| 2026-04-30 19:52 | 7.12484 | 99.11867 | 38843 ft | 470 kts | 140° |
| 2026-04-30 19:52 | 7.07393 | 99.16035 | 38844 ft | 470 kts | 140° |
| 2026-04-30 19:53 | 7.02323 | 99.20184 | 38842 ft | 470 kts | 140° |
| 2026-04-30 19:53 | 6.97267 | 99.24320 | 38841 ft | 469 kts | 140° |
| 2026-04-30 19:54 | 6.92210 | 99.28455 | 38840 ft | 468 kts | 140° |
| 2026-04-30 19:54 | 6.87160 | 99.32586 | 38844 ft | 468 kts | 140° |
| 2026-04-30 19:55 | 6.82105 | 99.36722 | 38844 ft | 467 kts | 140° |
| 2026-04-30 19:55 | 6.77046 | 99.40858 | 38843 ft | 467 kts | 140° |
| 2026-04-30 19:56 | 6.72008 | 99.44975 | 38841 ft | 467 kts | 140° |
| 2026-04-30 19:56 | 6.66995 | 99.49071 | 38847 ft | 466 kts | 140° |
| 2026-04-30 19:57 | 6.61963 | 99.53185 | 38848 ft | 466 kts | 140° |
| 2026-04-30 19:57 | 6.56912 | 99.57314 | 38852 ft | 465 kts | 140° |
| 2026-04-30 19:58 | 6.51910 | 99.61410 | 38852 ft | 466 kts | 140° |
| 2026-04-30 19:58 | 6.46874 | 99.65524 | 38855 ft | 466 kts | 141° |
| 2026-04-30 19:59 | 6.41748 | 99.69568 | 38854 ft | 466 kts | 142° |
| 2026-04-30 20:00 | 6.34235 | 99.75771 | 38857 ft | 465 kts | 136° |
| 2026-04-30 20:00 | 6.29670 | 99.80347 | 38853 ft | 465 kts | 134° |
| 2026-04-30 20:01 | 6.22895 | 99.87299 | 38849 ft | 465 kts | 134° |
| 2026-04-30 20:01 | 6.18364 | 99.91946 | 38845 ft | 465 kts | 134° |
| 2026-04-30 20:02 | 6.11586 | 99.98892 | 38843 ft | 464 kts | 134° |
| 2026-04-30 20:03 | 6.04782 | 100.05817 | 38839 ft | 463 kts | 135° |
| 2026-04-30 20:03 | 6.00266 | 100.10419 | 38841 ft | 464 kts | 134° |
| 2026-04-30 20:04 | 5.95744 | 100.15036 | 38847 ft | 464 kts | 134° |
| 2026-04-30 20:05 | 5.88930 | 100.21995 | 38850 ft | 464 kts | 134° |
| 2026-04-30 20:05 | 5.82171 | 100.28898 | 38854 ft | 463 kts | 134° |
| 2026-04-30 20:06 | 5.77664 | 100.33500 | 38861 ft | 463 kts | 134° |
| 2026-04-30 20:06 | 5.73136 | 100.38121 | 38871 ft | 462 kts | 134° |
| 2026-04-30 20:07 | 5.68628 | 100.42724 | 38867 ft | 462 kts | 134° |
| 2026-04-30 20:08 | 5.61863 | 100.49630 | 38868 ft | 463 kts | 134° |
| 2026-04-30 20:08 | 5.57356 | 100.54231 | 38870 ft | 463 kts | 134° |
| 2026-04-30 20:09 | 5.52834 | 100.58851 | 38872 ft | 462 kts | 134° |
| 2026-04-30 20:09 | 5.46076 | 100.65752 | 38874 ft | 462 kts | 134° |
| 2026-04-30 20:10 | 5.38661 | 100.71896 | 38877 ft | 463 kts | 148° |
| 2026-04-30 20:11 | 5.29824 | 100.75809 | 38879 ft | 463 kts | 163° |
| 2026-04-30 20:11 | 5.23492 | 100.77096 | 38882 ft | 464 kts | 169° |
| 2026-04-30 20:12 | 5.13881 | 100.78613 | 38886 ft | 465 kts | 169° |
| 2026-04-30 20:13 | 5.07499 | 100.79624 | 38890 ft | 465 kts | 169° |
| 2026-04-30 20:13 | 5.01096 | 100.80643 | 38888 ft | 466 kts | 169° |
| 2026-04-30 20:14 | 4.94681 | 100.81657 | 38890 ft | 465 kts | 169° |
| 2026-04-30 20:14 | 4.88231 | 100.82666 | 38903 ft | 465 kts | 169° |
| 2026-04-30 20:15 | 4.81875 | 100.83665 | 38897 ft | 464 kts | 169° |
| 2026-04-30 20:15 | 4.75479 | 100.84676 | 38889 ft | 464 kts | 169° |
| 2026-04-30 20:16 | 4.69041 | 100.85696 | 38884 ft | 465 kts | 169° |
| 2026-04-30 20:16 | 4.62672 | 100.86712 | 38878 ft | 466 kts | 169° |
| 2026-04-30 20:17 | 4.56233 | 100.87732 | 38867 ft | 466 kts | 169° |
| 2026-04-30 20:17 | 4.49834 | 100.88963 | 38863 ft | 465 kts | 164° |
| 2026-04-30 20:18 | 4.43668 | 100.90815 | 38837 ft | 464 kts | 158° |
| 2026-04-30 20:18 | 4.40636 | 100.91988 | 38257 ft | 467 kts | 155° |
| 2026-04-30 20:18 | 4.37682 | 100.93319 | 37657 ft | 465 kts | 152° |
| 2026-04-30 20:18 | 4.34744 | 100.94743 | 37087 ft | 464 kts | 152° |
| 2026-04-30 20:19 | 4.31855 | 100.96155 | 36446 ft | 465 kts | 152° |
| 2026-04-30 20:19 | 4.29891 | 100.97115 | 35963 ft | 465 kts | 152° |
| 2026-04-30 20:19 | 4.26023 | 100.99004 | 35045 ft | 466 kts | 152° |
| 2026-04-30 20:19 | 4.23099 | 101.00433 | 34336 ft | 467 kts | 152° |
| 2026-04-30 20:20 | 4.20187 | 101.01853 | 33635 ft | 467 kts | 152° |
| 2026-04-30 20:20 | 4.17271 | 101.03275 | 32916 ft | 469 kts | 152° |
| 2026-04-30 20:20 | 4.14310 | 101.04717 | 32223 ft | 470 kts | 152° |
| 2026-04-30 20:20 | 4.11370 | 101.06151 | 31507 ft | 473 kts | 152° |
| 2026-04-30 20:21 | 4.08413 | 101.07592 | 30778 ft | 475 kts | 152° |
| 2026-04-30 20:21 | 4.05409 | 101.09056 | 30052 ft | 477 kts | 152° |
| 2026-04-30 20:21 | 4.02439 | 101.10503 | 29324 ft | 479 kts | 152° |
| 2026-04-30 20:21 | 3.99428 | 101.11971 | 28582 ft | 481 kts | 152° |
| 2026-04-30 20:22 | 3.96395 | 101.13448 | 27839 ft | 483 kts | 152° |
| 2026-04-30 20:22 | 3.93400 | 101.14907 | 27250 ft | 481 kts | 152° |
| 2026-04-30 20:22 | 3.90363 | 101.16386 | 26846 ft | 480 kts | 152° |
| 2026-04-30 20:22 | 3.87356 | 101.17853 | 26358 ft | 477 kts | 152° |
| 2026-04-30 20:23 | 3.84370 | 101.19311 | 25925 ft | 471 kts | 152° |
| 2026-04-30 20:23 | 3.81458 | 101.20729 | 25432 ft | 468 kts | 152° |
| 2026-04-30 20:23 | 3.78528 | 101.22157 | 24981 ft | 462 kts | 152° |
| 2026-04-30 20:23 | 3.75683 | 101.23647 | 24556 ft | 456 kts | 149° |
| 2026-04-30 20:24 | 3.72954 | 101.25195 | 24144 ft | 450 kts | 148° |
| 2026-04-30 20:24 | 3.70232 | 101.26754 | 23728 ft | 445 kts | 148° |
| 2026-04-30 20:24 | 3.67549 | 101.28298 | 23309 ft | 441 kts | 148° |
| 2026-04-30 20:24 | 3.64940 | 101.29801 | 22899 ft | 436 kts | 148° |
| 2026-04-30 20:25 | 3.59722 | 101.32808 | 22075 ft | 428 kts | 147° |
| 2026-04-30 20:25 | 3.57120 | 101.34307 | 21649 ft | 425 kts | 147° |
| 2026-04-30 20:26 | 3.52044 | 101.37233 | 20739 ft | 420 kts | 147° |
| 2026-04-30 20:26 | 3.46988 | 101.40145 | 19820 ft | 415 kts | 147° |
| 2026-04-30 20:26 | 3.44490 | 101.41585 | 19352 ft | 413 kts | 147° |
| 2026-04-30 20:27 | 3.39525 | 101.44443 | 18455 ft | 408 kts | 147° |
| 2026-04-30 20:27 | 3.34634 | 101.47260 | 17572 ft | 403 kts | 147° |
| 2026-04-30 20:28 | 3.29798 | 101.50043 | 16688 ft | 398 kts | 147° |
| 2026-04-30 20:28 | 3.25026 | 101.52790 | 15813 ft | 392 kts | 147° |
| 2026-04-30 20:29 | 3.20296 | 101.55512 | 14931 ft | 388 kts | 147° |
| 2026-04-30 20:30 | 3.13322 | 101.59524 | 13614 ft | 381 kts | 147° |
| 2026-04-30 20:30 | 3.06465 | 101.63470 | 12317 ft | 374 kts | 147° |
| 2026-04-30 20:31 | 2.99737 | 101.67345 | 11028 ft | 368 kts | 148° |
| 2026-04-30 20:32 | 2.93230 | 101.71086 | 10351 ft | 342 kts | 147° |
| 2026-04-30 20:32 | 2.89205 | 101.73422 | 10148 ft | 321 kts | 147° |
| 2026-04-30 20:33 | 2.87281 | 101.74526 | 10063 ft | 311 kts | 148° |
| 2026-04-30 20:33 | 2.83633 | 101.76622 | 9994 ft | 289 kts | 147° |
| 2026-04-30 20:33 | 2.81921 | 101.77600 | 9995 ft | 278 kts | 147° |
| 2026-04-30 20:34 | 2.78650 | 101.79628 | 9758 ft | 277 kts | 143° |
| 2026-04-30 20:34 | 2.75421 | 101.81797 | 9106 ft | 280 kts | 143° |
| 2026-04-30 20:35 | 2.73814 | 101.82866 | 8906 ft | 276 kts | 142° |
| 2026-04-30 20:35 | 2.72226 | 101.83949 | 8703 ft | 272 kts | 143° |
| 2026-04-30 20:35 | 2.69079 | 101.86068 | 8194 ft | 271 kts | 143° |
| 2026-04-30 20:36 | 2.67519 | 101.87114 | 7924 ft | 271 kts | 143° |
| 2026-04-30 20:36 | 2.65948 | 101.88177 | 7729 ft | 268 kts | 143° |
| 2026-04-30 20:36 | 2.62850 | 101.90243 | 7315 ft | 264 kts | 144° |
| 2026-04-30 20:37 | 2.61316 | 101.91249 | 7089 ft | 263 kts | 142° |
| 2026-04-30 20:37 | 2.59786 | 101.92281 | 6855 ft | 263 kts | 142° |
| 2026-04-30 20:37 | 2.58284 | 101.93305 | 6609 ft | 262 kts | 143° |
| 2026-04-30 20:37 | 2.56755 | 101.94341 | 6351 ft | 263 kts | 143° |
| 2026-04-30 20:38 | 2.55251 | 101.95344 | 6062 ft | 256 kts | 143° |
| 2026-04-30 20:38 | 2.53689 | 101.96098 | 5996 ft | 249 kts | 170° |
| 2026-04-30 20:38 | 2.51985 | 101.95837 | 5883 ft | 250 kts | 207° |
| 2026-04-30 20:39 | 2.49923 | 101.93153 | 5453 ft | 242 kts | 244° |
| 2026-04-30 20:39 | 2.49175 | 101.91667 | 5128 ft | 238 kts | 247° |
| 2026-04-30 20:39 | 2.48858 | 101.90112 | 4848 ft | 229 kts | 280° |
| 2026-04-30 20:40 | 2.50633 | 101.87864 | 4527 ft | 204 kts | 340° |
| 2026-04-30 20:40 | 2.51910 | 101.87312 | 4499 ft | 194 kts | 340° |
| 2026-04-30 20:40 | 2.53083 | 101.86721 | 4511 ft | 182 kts | 334° |
| 2026-04-30 20:41 | 2.55185 | 101.85407 | 4478 ft | 177 kts | 331° |
| 2026-04-30 20:41 | 2.56219 | 101.84733 | 4266 ft | 178 kts | 330° |
| 2026-04-30 20:41 | 2.57248 | 101.84036 | 4034 ft | 179 kts | 330° |
| 2026-04-30 20:41 | 2.58284 | 101.83335 | 3795 ft | 180 kts | 330° |
| 2026-04-30 20:42 | 2.59339 | 101.82626 | 3555 ft | 181 kts | 330° |
| 2026-04-30 20:42 | 2.60384 | 101.81920 | 3316 ft | 182 kts | 330° |
| 2026-04-30 20:42 | 2.62471 | 101.80510 | 2845 ft | 177 kts | 330° |
| 2026-04-30 20:43 | 2.63489 | 101.79820 | 2613 ft | 171 kts | 331° |
| 2026-04-30 20:43 | 2.64455 | 101.79176 | 2398 ft | 165 kts | 331° |
| 2026-04-30 20:43 | 2.65410 | 101.78560 | 2175 ft | 160 kts | 328° |
| 2026-04-30 20:44 | 2.67176 | 101.77344 | 1791 ft | 147 kts | 329° |
| 2026-04-30 20:44 | 2.68024 | 101.76769 | 1625 ft | 147 kts | 328° |
| 2026-04-30 20:44 | 2.69745 | 101.75635 | 1257 ft | 147 kts | 328° |
| 2026-04-30 20:45 | 2.71432 | 101.74475 | 879 ft | 146 kts | 329° |
| 2026-04-30 20:45 | 2.72293 | 101.73926 | 683 ft | 145 kts | 327° |
| 2026-04-30 20:45 | 2.73127 | 101.73357 | 493 ft | 146 kts | 325° |
| 2026-04-30 20:46 | 2.75619 | 101.71690 | 84 ft | 131 kts | 324° |
| 2026-04-30 20:46 | 2.76229 | 101.71275 | 83 ft | 80 kts | 326° |
| 2026-04-30 20:47 | 2.76771 | 101.70912 | 83 ft | 25 kts | 321° |
| 2026-04-30 20:47 | 2.76877 | 101.70780 | 83 ft | 23 kts | 297° |
| 2026-04-30 20:48 | 2.76893 | 101.70623 | 83 ft | 8 kts | 204° |
| 2026-04-30 20:48 | 2.76832 | 101.70637 | 83 ft | 10 kts | 147° |
| 2026-04-30 20:48 | 2.76769 | 101.70680 | 83 ft | 11 kts | 146° |
| 2026-04-30 20:48 | 2.76697 | 101.70728 | 83 ft | 12 kts | 146° |
| 2026-04-30 20:49 | 2.76620 | 101.70779 | 83 ft | 13 kts | 146° |
| 2026-04-30 20:49 | 2.76538 | 101.70835 | 83 ft | 14 kts | 146° |
| 2026-04-30 20:49 | 2.76451 | 101.70894 | 83 ft | 15 kts | 146° |
| 2026-04-30 20:50 | 2.76262 | 101.71012 | 83 ft | 16 kts | 158° |
| 2026-04-30 20:50 | 2.76149 | 101.71039 | 83 ft | 16 kts | 171° |
| 2026-04-30 20:50 | 2.76033 | 101.71069 | 83 ft | 17 kts | 157° |
| 2026-04-30 20:50 | 2.75927 | 101.71128 | 83 ft | 17 kts | 146° |
| 2026-04-30 20:51 | 2.75827 | 101.71198 | 83 ft | 17 kts | 145° |
| 2026-04-30 20:51 | 2.75620 | 101.71336 | 83 ft | 18 kts | 145° |
| 2026-04-30 20:51 | 2.75515 | 101.71408 | 83 ft | 18 kts | 146° |
| 2026-04-30 20:52 | 2.75410 | 101.71480 | 83 ft | 18 kts | 146° |
| 2026-04-30 20:52 | 2.75303 | 101.71551 | 83 ft | 18 kts | 146° |
| 2026-04-30 20:52 | 2.75092 | 101.71693 | 83 ft | 14 kts | 146° |
| 2026-04-30 20:53 | 2.75008 | 101.71750 | 83 ft | 14 kts | 146° |
| 2026-04-30 20:53 | 2.74932 | 101.71785 | 83 ft | 11 kts | 186° |
| 2026-04-30 20:53 | 2.74872 | 101.71729 | 83 ft | 12 kts | 236° |
| 2026-04-30 20:54 | 2.74801 | 101.71612 | 83 ft | 5 kts | 276° |
| 2026-04-30 20:54 | 2.74830 | 101.71581 | 83 ft | 5 kts | 327° |
| 2026-04-30 20:54 | 2.74837 | 101.71577 | 83 ft | 0 kts | 327° |
| 2026-04-30 20:55 | 2.74847 | 101.71571 | 83 ft | 3 kts | 327° |
| 2026-04-30 20:55 | 2.74853 | 101.71566 | 83 ft | 0 kts | 327° |